<?xml version='1.0' encoding='UTF-8'?><gpx version="1.1" creator="JPX - https://github.com/jenetics/jpx" xmlns="http://www.topografix.com/GPX/1/1"><trk><trkseg><trkpt lat="43.1083841" lon="12.4419413"><ele>243.0</ele><time>2026-04-22T16:45:35.656Z</time></trkpt><trkpt lat="43.1083086" lon="12.4419711"><ele>243.0</ele><time>2026-04-22T16:45:45.656Z</time></trkpt><trkpt lat="43.1082561" lon="12.442085"><ele>243.0</ele><time>2026-04-22T16:45:47.656Z</time></trkpt><trkpt lat="43.1082088" lon="12.4421473"><ele>243.0</ele><time>2026-04-22T16:45:48.656Z</time></trkpt><trkpt lat="43.1081582" lon="12.4422062"><ele>243.0</ele><time>2026-04-22T16:45:49.656Z</time></trkpt><trkpt lat="43.1080825" lon="12.4422665"><ele>243.0</ele><time>2026-04-22T16:45:50.656Z</time></trkpt><trkpt lat="43.1080052" lon="12.4423294"><ele>241.2</ele><time>2026-04-22T16:45:51.656Z</time></trkpt><trkpt lat="43.107914" lon="12.4424026"><ele>239.4</ele><time>2026-04-22T16:45:52.656Z</time></trkpt><trkpt lat="43.1078364" lon="12.4425006"><ele>237.59999999999997</ele><time>2026-04-22T16:45:53.656Z</time></trkpt><trkpt lat="43.1077668" lon="12.442596"><ele>235.79999999999998</ele><time>2026-04-22T16:45:54.656Z</time></trkpt><trkpt lat="43.1077017" lon="12.4426922"><ele>234.0</ele><time>2026-04-22T16:45:55.656Z</time></trkpt><trkpt lat="43.1076552" lon="12.4427884"><ele>234.0</ele><time>2026-04-22T16:45:56.656Z</time></trkpt><trkpt lat="43.1076052" lon="12.44287"><ele>233.99999999999997</ele><time>2026-04-22T16:45:57.656Z</time></trkpt><trkpt lat="43.1075297" lon="12.4430336"><ele>233.99999999999997</ele><time>2026-04-22T16:45:59.656Z</time></trkpt><trkpt lat="43.107502" lon="12.4431814"><ele>234.0</ele><time>2026-04-22T16:46:00.656Z</time></trkpt><trkpt lat="43.1075037" lon="12.443335"><ele>234.0</ele><time>2026-04-22T16:46:01.656Z</time></trkpt><trkpt lat="43.1075172" lon="12.4434931"><ele>230.25</ele><time>2026-04-22T16:46:02.656Z</time></trkpt><trkpt lat="43.1075259" lon="12.443676"><ele>226.5</ele><time>2026-04-22T16:46:03.964Z</time></trkpt><trkpt lat="43.1075398" lon="12.4438332"><ele>222.75</ele><time>2026-04-22T16:46:04.995Z</time></trkpt><trkpt lat="43.1075655" lon="12.4439682"><ele>219.0</ele><time>2026-04-22T16:46:05.922Z</time></trkpt><trkpt lat="43.1076715" lon="12.4442546"><ele>217.0</ele><time>2026-04-22T16:46:06.921Z</time></trkpt><trkpt lat="43.1076321" lon="12.4441847"><ele>215.0</ele><time>2026-04-22T16:46:07.868Z</time></trkpt><trkpt lat="43.1075384" lon="12.4442413"><ele>213.0</ele><time>2026-04-22T16:46:08.895Z</time></trkpt><trkpt lat="43.1076178" lon="12.4442246"><ele>211.0</ele><time>2026-04-22T16:46:10.926Z</time></trkpt><trkpt lat="43.1076667" lon="12.4440902"><ele>209.0</ele><time>2026-04-22T16:46:12.987Z</time></trkpt><trkpt lat="43.1075942" lon="12.4440672"><ele>207.0</ele><time>2026-04-22T16:46:15.877Z</time></trkpt><trkpt lat="43.1075749" lon="12.4441561"><ele>207.0</ele><time>2026-04-22T16:46:16.895Z</time></trkpt><trkpt lat="43.1075508" lon="12.4443561"><ele>207.0</ele><time>2026-04-22T16:46:17.89Z</time></trkpt><trkpt lat="43.1076144" lon="12.4443854"><ele>207.0</ele><time>2026-04-22T16:46:29.921Z</time></trkpt><trkpt lat="43.1076771" lon="12.4444498"><ele>207.0</ele><time>2026-04-22T16:46:31.94Z</time></trkpt><trkpt lat="43.1077558" lon="12.4444991"><ele>207.0</ele><time>2026-04-22T16:46:33.973Z</time></trkpt><trkpt lat="43.1078427" lon="12.4445238"><ele>207.0</ele><time>2026-04-22T16:46:36.008Z</time></trkpt><trkpt lat="43.107944" lon="12.4445863"><ele>207.0</ele><time>2026-04-22T16:46:37.964Z</time></trkpt><trkpt lat="43.1080355" lon="12.444667"><ele>207.0</ele><time>2026-04-22T16:46:39.965Z</time></trkpt><trkpt lat="43.1081399" lon="12.444753"><ele>207.0</ele><time>2026-04-22T16:46:41.964Z</time></trkpt><trkpt lat="43.1082501" lon="12.4448544"><ele>204.5</ele><time>2026-04-22T16:46:44.12Z</time></trkpt><trkpt lat="43.1083503" lon="12.4449302"><ele>202.0</ele><time>2026-04-22T16:46:45.978Z</time></trkpt><trkpt lat="43.1084012" lon="12.4449811"><ele>199.5</ele><time>2026-04-22T16:46:46.963Z</time></trkpt><trkpt lat="43.1084553" lon="12.4450316"><ele>197.0</ele><time>2026-04-22T16:46:47.961Z</time></trkpt><trkpt lat="43.108512" lon="12.4450758"><ele>194.5</ele><time>2026-04-22T16:46:48.932Z</time></trkpt><trkpt lat="43.108573" lon="12.4451207"><ele>192.0</ele><time>2026-04-22T16:46:49.963Z</time></trkpt><trkpt lat="43.1086372" lon="12.4451699"><ele>192.0</ele><time>2026-04-22T16:46:50.944Z</time></trkpt><trkpt lat="43.108696" lon="12.4452393"><ele>192.0</ele><time>2026-04-22T16:46:51.932Z</time></trkpt><trkpt lat="43.1087547" lon="12.4453037"><ele>192.0</ele><time>2026-04-22T16:46:52.915Z</time></trkpt><trkpt lat="43.1088189" lon="12.4453639"><ele>192.0</ele><time>2026-04-22T16:46:53.94Z</time></trkpt><trkpt lat="43.1088901" lon="12.4454291"><ele>192.0</ele><time>2026-04-22T16:46:54.972Z</time></trkpt><trkpt lat="43.1089589" lon="12.4454924"><ele>192.0</ele><time>2026-04-22T16:46:55.957Z</time></trkpt><trkpt lat="43.1091558" lon="12.4456768"><ele>192.2</ele><time>2026-04-22T16:46:56.978Z</time></trkpt><trkpt lat="43.1092339" lon="12.4457646"><ele>192.39999999999998</ele><time>2026-04-22T16:46:58.002Z</time></trkpt><trkpt lat="43.1093013" lon="12.4458437"><ele>192.60000000000002</ele><time>2026-04-22T16:46:59.008Z</time></trkpt><trkpt lat="43.1093917" lon="12.4458402"><ele>192.8</ele><time>2026-04-22T16:47:00.003Z</time></trkpt><trkpt lat="43.1094619" lon="12.4459076"><ele>193.0</ele><time>2026-04-22T16:47:00.999Z</time></trkpt><trkpt lat="43.1095335" lon="12.445981"><ele>193.0</ele><time>2026-04-22T16:47:01.989Z</time></trkpt><trkpt lat="43.1095992" lon="12.4460513"><ele>193.0</ele><time>2026-04-22T16:47:02.955Z</time></trkpt><trkpt lat="43.1096852" lon="12.4461584"><ele>193.0</ele><time>2026-04-22T16:47:04.978Z</time></trkpt><trkpt lat="43.1097253" lon="12.4462296"><ele>193.0</ele><time>2026-04-22T16:47:05.944Z</time></trkpt><trkpt lat="43.1097942" lon="12.4463381"><ele>193.0</ele><time>2026-04-22T16:47:07.974Z</time></trkpt><trkpt lat="43.1098954" lon="12.4463271"><ele>192.99999999999997</ele><time>2026-04-22T16:47:09.993Z</time></trkpt><trkpt lat="43.1099347" lon="12.4462097"><ele>193.0</ele><time>2026-04-22T16:47:10.97Z</time></trkpt><trkpt lat="43.1100126" lon="12.4461912"><ele>193.0</ele><time>2026-04-22T16:47:12.002Z</time></trkpt><trkpt lat="43.1100972" lon="12.4461472"><ele>193.0</ele><time>2026-04-22T16:47:13.994Z</time></trkpt><trkpt lat="43.1101623" lon="12.4460569"><ele>192.99999999999997</ele><time>2026-04-22T16:47:14.983Z</time></trkpt><trkpt lat="43.1101771" lon="12.4459595"><ele>193.0</ele><time>2026-04-22T16:47:15.999Z</time></trkpt><trkpt lat="43.1102561" lon="12.4458789"><ele>192.99999999999997</ele><time>2026-04-22T16:47:17.963Z</time></trkpt><trkpt lat="43.1103612" lon="12.4457592"><ele>193.0</ele><time>2026-04-22T16:47:19.964Z</time></trkpt><trkpt lat="43.110419" lon="12.4457147"><ele>193.0</ele><time>2026-04-22T16:47:20.955Z</time></trkpt><trkpt lat="43.1104789" lon="12.4456593"><ele>193.0</ele><time>2026-04-22T16:47:21.962Z</time></trkpt><trkpt lat="43.1105611" lon="12.4456182"><ele>192.99999999999997</ele><time>2026-04-22T16:47:22.956Z</time></trkpt><trkpt lat="43.1106358" lon="12.445588"><ele>193.0</ele><time>2026-04-22T16:47:23.978Z</time></trkpt><trkpt lat="43.1106924" lon="12.4455182"><ele>193.0</ele><time>2026-04-22T16:47:24.993Z</time></trkpt><trkpt lat="43.1107619" lon="12.445488"><ele>193.0</ele><time>2026-04-22T16:47:25.975Z</time></trkpt><trkpt lat="43.1108497" lon="12.4454261"><ele>193.0</ele><time>2026-04-22T16:47:28.946Z</time></trkpt><trkpt lat="43.110961" lon="12.4453698"><ele>193.0</ele><time>2026-04-22T16:47:30.918Z</time></trkpt><trkpt lat="43.1110734" lon="12.4453073"><ele>193.0</ele><time>2026-04-22T16:47:32.933Z</time></trkpt><trkpt lat="43.1111859" lon="12.4452212"><ele>193.0</ele><time>2026-04-22T16:47:35.049Z</time></trkpt><trkpt lat="43.111284" lon="12.445158"><ele>193.0</ele><time>2026-04-22T16:47:36.935Z</time></trkpt><trkpt lat="43.111442" lon="12.4450802"><ele>193.0</ele><time>2026-04-22T16:47:37.97Z</time></trkpt><trkpt lat="43.1115542" lon="12.4450029"><ele>193.0</ele><time>2026-04-22T16:47:39.968Z</time></trkpt><trkpt lat="43.1116093" lon="12.4449535"><ele>193.0</ele><time>2026-04-22T16:47:40.993Z</time></trkpt><trkpt lat="43.1116698" lon="12.4449165"><ele>193.0</ele><time>2026-04-22T16:47:41.969Z</time></trkpt><trkpt lat="43.1117888" lon="12.4448453"><ele>193.0</ele><time>2026-04-22T16:47:44.035Z</time></trkpt><trkpt lat="43.111834" lon="12.4447797"><ele>193.0</ele><time>2026-04-22T16:47:45.005Z</time></trkpt><trkpt lat="43.111913" lon="12.4446911"><ele>193.0</ele><time>2026-04-22T16:47:46.979Z</time></trkpt><trkpt lat="43.1120013" lon="12.4446063"><ele>192.8</ele><time>2026-04-22T16:47:48.957Z</time></trkpt><trkpt lat="43.112048" lon="12.444496"><ele>192.60000000000002</ele><time>2026-04-22T16:47:50.968Z</time></trkpt><trkpt lat="43.1121573" lon="12.4444108"><ele>192.39999999999998</ele><time>2026-04-22T16:47:54.961Z</time></trkpt><trkpt lat="43.1122262" lon="12.4444303"><ele>192.2</ele><time>2026-04-22T16:47:58.954Z</time></trkpt><trkpt lat="43.112269" lon="12.44453"><ele>192.0</ele><time>2026-04-22T16:48:00.926Z</time></trkpt><trkpt lat="43.1123609" lon="12.4445948"><ele>192.0</ele><time>2026-04-22T16:48:02.93Z</time></trkpt><trkpt lat="43.1124558" lon="12.4446563"><ele>192.0</ele><time>2026-04-22T16:48:04.926Z</time></trkpt><trkpt lat="43.1125423" lon="12.444713"><ele>192.0</ele><time>2026-04-22T16:48:06.957Z</time></trkpt><trkpt lat="43.1126287" lon="12.4447646"><ele>192.0</ele><time>2026-04-22T16:48:08.913Z</time></trkpt><trkpt lat="43.1127169" lon="12.4448061"><ele>192.0</ele><time>2026-04-22T16:48:10.954Z</time></trkpt><trkpt lat="43.1127999" lon="12.4448361"><ele>192.0</ele><time>2026-04-22T16:48:12.938Z</time></trkpt><trkpt lat="43.1129015" lon="12.4448615"><ele>192.0</ele><time>2026-04-22T16:48:14.925Z</time></trkpt><trkpt lat="43.1130006" lon="12.4448852"><ele>192.0</ele><time>2026-04-22T16:48:16.927Z</time></trkpt><trkpt lat="43.1130894" lon="12.4449018"><ele>192.0</ele><time>2026-04-22T16:48:18.914Z</time></trkpt><trkpt lat="43.1131801" lon="12.4449115"><ele>192.0</ele><time>2026-04-22T16:48:20.912Z</time></trkpt><trkpt lat="43.1132775" lon="12.4449115"><ele>191.6</ele><time>2026-04-22T16:48:22.947Z</time></trkpt><trkpt lat="43.1133743" lon="12.4449043"><ele>191.2</ele><time>2026-04-22T16:48:24.945Z</time></trkpt><trkpt lat="43.1134603" lon="12.4448935"><ele>190.8</ele><time>2026-04-22T16:48:26.925Z</time></trkpt><trkpt lat="43.1136118" lon="12.4448709"><ele>190.4</ele><time>2026-04-22T16:48:29.915Z</time></trkpt><trkpt lat="43.1137146" lon="12.4448339"><ele>190.0</ele><time>2026-04-22T16:48:31.934Z</time></trkpt><trkpt lat="43.1138201" lon="12.444789"><ele>190.0</ele><time>2026-04-22T16:48:33.978Z</time></trkpt><trkpt lat="43.1139121" lon="12.4447281"><ele>190.0</ele><time>2026-04-22T16:48:35.901Z</time></trkpt><trkpt lat="43.114008" lon="12.444648"><ele>190.0</ele><time>2026-04-22T16:48:37.914Z</time></trkpt><trkpt lat="43.1140923" lon="12.4445634"><ele>190.0</ele><time>2026-04-22T16:48:39.903Z</time></trkpt><trkpt lat="43.1141804" lon="12.444467"><ele>190.0</ele><time>2026-04-22T16:48:41.944Z</time></trkpt><trkpt lat="43.1142648" lon="12.4443881"><ele>190.25</ele><time>2026-04-22T16:48:43.916Z</time></trkpt><trkpt lat="43.114349" lon="12.4442874"><ele>190.5</ele><time>2026-04-22T16:48:45.982Z</time></trkpt><trkpt lat="43.1144274" lon="12.4441808"><ele>190.75</ele><time>2026-04-22T16:48:47.941Z</time></trkpt><trkpt lat="43.1145089" lon="12.4440656"><ele>191.0</ele><time>2026-04-22T16:48:49.951Z</time></trkpt><trkpt lat="43.1145777" lon="12.4439465"><ele>191.0</ele><time>2026-04-22T16:48:51.942Z</time></trkpt><trkpt lat="43.1146501" lon="12.4438316"><ele>191.0</ele><time>2026-04-22T16:48:53.92Z</time></trkpt><trkpt lat="43.1147258" lon="12.4437146"><ele>191.0</ele><time>2026-04-22T16:48:55.93Z</time></trkpt><trkpt lat="43.1147937" lon="12.4435877"><ele>191.0</ele><time>2026-04-22T16:48:57.938Z</time></trkpt><trkpt lat="43.1148568" lon="12.4434619"><ele>190.8</ele><time>2026-04-22T16:48:59.923Z</time></trkpt><trkpt lat="43.1149198" lon="12.4433359"><ele>190.60000000000002</ele><time>2026-04-22T16:49:01.914Z</time></trkpt><trkpt lat="43.1149817" lon="12.4432101"><ele>190.4</ele><time>2026-04-22T16:49:03.909Z</time></trkpt><trkpt lat="43.1150434" lon="12.4430851"><ele>190.2</ele><time>2026-04-22T16:49:05.91Z</time></trkpt><trkpt lat="43.1151149" lon="12.4429598"><ele>190.0</ele><time>2026-04-22T16:49:07.922Z</time></trkpt><trkpt lat="43.1151921" lon="12.4428514"><ele>189.75</ele><time>2026-04-22T16:49:09.932Z</time></trkpt><trkpt lat="43.1152698" lon="12.4427345"><ele>189.5</ele><time>2026-04-22T16:49:11.952Z</time></trkpt><trkpt lat="43.1153486" lon="12.442616"><ele>189.25</ele><time>2026-04-22T16:49:13.929Z</time></trkpt><trkpt lat="43.1154295" lon="12.4424944"><ele>189.0</ele><time>2026-04-22T16:49:15.925Z</time></trkpt><trkpt lat="43.1155162" lon="12.4423744"><ele>189.0</ele><time>2026-04-22T16:49:17.949Z</time></trkpt><trkpt lat="43.1156027" lon="12.4422426"><ele>189.0</ele><time>2026-04-22T16:49:19.958Z</time></trkpt><trkpt lat="43.1156395" lon="12.442171"><ele>189.0</ele><time>2026-04-22T16:49:20.955Z</time></trkpt><trkpt lat="43.1156619" lon="12.4420896"><ele>189.0</ele><time>2026-04-22T16:49:21.924Z</time></trkpt><trkpt lat="43.1156786" lon="12.4420026"><ele>189.0</ele><time>2026-04-22T16:49:22.929Z</time></trkpt><trkpt lat="43.1156897" lon="12.4419073"><ele>189.0</ele><time>2026-04-22T16:49:23.93Z</time></trkpt><trkpt lat="43.1157252" lon="12.4417398"><ele>189.5</ele><time>2026-04-22T16:49:25.953Z</time></trkpt><trkpt lat="43.1157812" lon="12.4415801"><ele>190.0</ele><time>2026-04-22T16:49:27.99Z</time></trkpt><trkpt lat="43.1158377" lon="12.4414398"><ele>190.5</ele><time>2026-04-22T16:49:29.958Z</time></trkpt><trkpt lat="43.1159035" lon="12.4412967"><ele>191.0</ele><time>2026-04-22T16:49:31.947Z</time></trkpt><trkpt lat="43.1159643" lon="12.4411557"><ele>191.0</ele><time>2026-04-22T16:49:33.912Z</time></trkpt><trkpt lat="43.1159901" lon="12.4410738"><ele>191.0</ele><time>2026-04-22T16:49:34.956Z</time></trkpt><trkpt lat="43.1160398" lon="12.4409306"><ele>191.0</ele><time>2026-04-22T16:49:36.934Z</time></trkpt><trkpt lat="43.1160956" lon="12.4407888"><ele>191.0</ele><time>2026-04-22T16:49:38.931Z</time></trkpt><trkpt lat="43.1161637" lon="12.4406617"><ele>191.0</ele><time>2026-04-22T16:49:40.921Z</time></trkpt><trkpt lat="43.1162344" lon="12.4405421"><ele>190.83333333333331</ele><time>2026-04-22T16:49:42.91Z</time></trkpt><trkpt lat="43.1162647" lon="12.4404057"><ele>190.66666666666666</ele><time>2026-04-22T16:49:44.923Z</time></trkpt><trkpt lat="43.116266" lon="12.4402294"><ele>190.5</ele><time>2026-04-22T16:49:46.941Z</time></trkpt><trkpt lat="43.1162707" lon="12.4401276"><ele>190.33333333333334</ele><time>2026-04-22T16:49:47.957Z</time></trkpt><trkpt lat="43.1162751" lon="12.440036"><ele>190.16666666666669</ele><time>2026-04-22T16:49:48.955Z</time></trkpt><trkpt lat="43.1162832" lon="12.4399414"><ele>190.0</ele><time>2026-04-22T16:49:49.95Z</time></trkpt><trkpt lat="43.1162966" lon="12.4398464"><ele>190.0</ele><time>2026-04-22T16:49:50.949Z</time></trkpt><trkpt lat="43.1163122" lon="12.4397565"><ele>190.0</ele><time>2026-04-22T16:49:51.94Z</time></trkpt><trkpt lat="43.1163273" lon="12.4396714"><ele>190.0</ele><time>2026-04-22T16:49:52.936Z</time></trkpt><trkpt lat="43.1163387" lon="12.4395803"><ele>190.0</ele><time>2026-04-22T16:49:53.928Z</time></trkpt><trkpt lat="43.1163492" lon="12.4394795"><ele>190.0</ele><time>2026-04-22T16:49:54.974Z</time></trkpt><trkpt lat="43.1163611" lon="12.4393911"><ele>190.0</ele><time>2026-04-22T16:49:55.913Z</time></trkpt><trkpt lat="43.1163959" lon="12.4392283"><ele>190.0</ele><time>2026-04-22T16:49:57.959Z</time></trkpt><trkpt lat="43.1164396" lon="12.439065"><ele>190.0</ele><time>2026-04-22T16:49:59.92Z</time></trkpt><trkpt lat="43.1164837" lon="12.4389127"><ele>190.0</ele><time>2026-04-22T16:50:01.911Z</time></trkpt><trkpt lat="43.1165105" lon="12.4388327"><ele>190.0</ele><time>2026-04-22T16:50:02.959Z</time></trkpt><trkpt lat="43.1165372" lon="12.4387529"><ele>190.0</ele><time>2026-04-22T16:50:03.988Z</time></trkpt><trkpt lat="43.116561" lon="12.4386729"><ele>190.0</ele><time>2026-04-22T16:50:04.961Z</time></trkpt><trkpt lat="43.1166107" lon="12.438533"><ele>190.2</ele><time>2026-04-22T16:50:06.938Z</time></trkpt><trkpt lat="43.1166337" lon="12.4383664"><ele>190.4</ele><time>2026-04-22T16:50:08.96Z</time></trkpt><trkpt lat="43.1166632" lon="12.4381931"><ele>190.60000000000002</ele><time>2026-04-22T16:50:10.938Z</time></trkpt><trkpt lat="43.116668" lon="12.4381051"><ele>190.8</ele><time>2026-04-22T16:50:11.929Z</time></trkpt><trkpt lat="43.1166609" lon="12.438019"><ele>191.0</ele><time>2026-04-22T16:50:12.94Z</time></trkpt><trkpt lat="43.1166546" lon="12.437921"><ele>191.16666666666666</ele><time>2026-04-22T16:50:14.048Z</time></trkpt><trkpt lat="43.1166675" lon="12.4377932"><ele>191.33333333333331</ele><time>2026-04-22T16:50:15.98Z</time></trkpt><trkpt lat="43.1167326" lon="12.4376463"><ele>191.5</ele><time>2026-04-22T16:50:17.966Z</time></trkpt><trkpt lat="43.116757" lon="12.4375616"><ele>191.66666666666666</ele><time>2026-04-22T16:50:18.916Z</time></trkpt><trkpt lat="43.1167899" lon="12.437476"><ele>191.83333333333334</ele><time>2026-04-22T16:50:19.931Z</time></trkpt><trkpt lat="43.116815" lon="12.4373933"><ele>192.0</ele><time>2026-04-22T16:50:20.932Z</time></trkpt><trkpt lat="43.116865" lon="12.437273"><ele>192.0</ele><time>2026-04-22T16:50:22.906Z</time></trkpt><trkpt lat="43.1169228" lon="12.4371524"><ele>192.0</ele><time>2026-04-22T16:50:24.908Z</time></trkpt><trkpt lat="43.1169611" lon="12.4370778"><ele>192.0</ele><time>2026-04-22T16:50:25.954Z</time></trkpt><trkpt lat="43.1170364" lon="12.4369555"><ele>192.0</ele><time>2026-04-22T16:50:27.891Z</time></trkpt><trkpt lat="43.1171144" lon="12.4368392"><ele>192.0</ele><time>2026-04-22T16:50:29.951Z</time></trkpt><trkpt lat="43.1171833" lon="12.4367104"><ele>192.0</ele><time>2026-04-22T16:50:31.96Z</time></trkpt><trkpt lat="43.1172561" lon="12.4366109"><ele>192.0</ele><time>2026-04-22T16:50:33.926Z</time></trkpt><trkpt lat="43.1173496" lon="12.4365246"><ele>192.0</ele><time>2026-04-22T16:50:35.923Z</time></trkpt><trkpt lat="43.1174395" lon="12.436444"><ele>192.0</ele><time>2026-04-22T16:50:37.934Z</time></trkpt><trkpt lat="43.1175382" lon="12.4363659"><ele>192.0</ele><time>2026-04-22T16:50:39.952Z</time></trkpt><trkpt lat="43.1176172" lon="12.4362641"><ele>192.0</ele><time>2026-04-22T16:50:41.947Z</time></trkpt><trkpt lat="43.1176883" lon="12.4361733"><ele>192.0</ele><time>2026-04-22T16:50:43.927Z</time></trkpt><trkpt lat="43.117756" lon="12.4360822"><ele>192.0</ele><time>2026-04-22T16:50:45.936Z</time></trkpt><trkpt lat="43.117861" lon="12.4359864"><ele>192.0</ele><time>2026-04-22T16:50:48.084Z</time></trkpt><trkpt lat="43.1179477" lon="12.4359002"><ele>192.0</ele><time>2026-04-22T16:50:49.917Z</time></trkpt><trkpt lat="43.1180344" lon="12.435829"><ele>192.0</ele><time>2026-04-22T16:50:51.949Z</time></trkpt><trkpt lat="43.1180994" lon="12.4358028"><ele>192.0</ele><time>2026-04-22T16:50:52.96Z</time></trkpt><trkpt lat="43.1182073" lon="12.435832"><ele>192.0</ele><time>2026-04-22T16:50:54.944Z</time></trkpt><trkpt lat="43.118304" lon="12.4358687"><ele>192.0</ele><time>2026-04-22T16:50:56.922Z</time></trkpt><trkpt lat="43.1184017" lon="12.4358582"><ele>192.0</ele><time>2026-04-22T16:50:58.89Z</time></trkpt><trkpt lat="43.1184784" lon="12.4358317"><ele>192.0</ele><time>2026-04-22T16:51:00.918Z</time></trkpt><trkpt lat="43.1185621" lon="12.435781"><ele>192.0</ele><time>2026-04-22T16:51:02.904Z</time></trkpt><trkpt lat="43.1186574" lon="12.4357373"><ele>192.0</ele><time>2026-04-22T16:51:04.941Z</time></trkpt><trkpt lat="43.1187447" lon="12.4357055"><ele>192.0</ele><time>2026-04-22T16:51:06.967Z</time></trkpt><trkpt lat="43.1188396" lon="12.4356578"><ele>192.0</ele><time>2026-04-22T16:51:08.96Z</time></trkpt><trkpt lat="43.1189329" lon="12.4356184"><ele>192.0</ele><time>2026-04-22T16:51:10.932Z</time></trkpt><trkpt lat="43.1190299" lon="12.4355787"><ele>192.0</ele><time>2026-04-22T16:51:12.942Z</time></trkpt><trkpt lat="43.1191284" lon="12.4355409"><ele>192.0</ele><time>2026-04-22T16:51:14.95Z</time></trkpt><trkpt lat="43.1192302" lon="12.435511"><ele>192.0</ele><time>2026-04-22T16:51:16.916Z</time></trkpt><trkpt lat="43.1193356" lon="12.4354851"><ele>192.0</ele><time>2026-04-22T16:51:18.936Z</time></trkpt><trkpt lat="43.1194334" lon="12.4354685"><ele>192.0</ele><time>2026-04-22T16:51:20.915Z</time></trkpt><trkpt lat="43.1195424" lon="12.4354974"><ele>192.0</ele><time>2026-04-22T16:51:23.013Z</time></trkpt><trkpt lat="43.119634" lon="12.4355311"><ele>192.0</ele><time>2026-04-22T16:51:24.91Z</time></trkpt><trkpt lat="43.1197406" lon="12.4355229"><ele>192.0</ele><time>2026-04-22T16:51:26.919Z</time></trkpt><trkpt lat="43.1198499" lon="12.4354943"><ele>192.0</ele><time>2026-04-22T16:51:28.916Z</time></trkpt><trkpt lat="43.1199142" lon="12.4354825"><ele>192.2</ele><time>2026-04-22T16:51:29.915Z</time></trkpt><trkpt lat="43.120023" lon="12.4354358"><ele>192.39999999999998</ele><time>2026-04-22T16:51:31.932Z</time></trkpt><trkpt lat="43.1201228" lon="12.4353847"><ele>192.60000000000002</ele><time>2026-04-22T16:51:33.955Z</time></trkpt><trkpt lat="43.1202288" lon="12.4353333"><ele>192.8</ele><time>2026-04-22T16:51:35.96Z</time></trkpt><trkpt lat="43.1203314" lon="12.4353125"><ele>193.0</ele><time>2026-04-22T16:51:37.892Z</time></trkpt><trkpt lat="43.1204525" lon="12.4353141"><ele>193.0</ele><time>2026-04-22T16:51:39.92Z</time></trkpt><trkpt lat="43.1205399" lon="12.4353499"><ele>193.0</ele><time>2026-04-22T16:51:41.905Z</time></trkpt><trkpt lat="43.1206374" lon="12.4354129"><ele>193.0</ele><time>2026-04-22T16:51:43.927Z</time></trkpt><trkpt lat="43.1207048" lon="12.4354419"><ele>193.0</ele><time>2026-04-22T16:51:45.051Z</time></trkpt><trkpt lat="43.1207941" lon="12.4354948"><ele>193.0</ele><time>2026-04-22T16:51:46.945Z</time></trkpt><trkpt lat="43.1208815" lon="12.4355308"><ele>192.8</ele><time>2026-04-22T16:51:48.959Z</time></trkpt><trkpt lat="43.1209651" lon="12.4355648"><ele>192.60000000000002</ele><time>2026-04-22T16:51:50.914Z</time></trkpt><trkpt lat="43.1210563" lon="12.4355825"><ele>192.39999999999998</ele><time>2026-04-22T16:51:52.886Z</time></trkpt><trkpt lat="43.1211575" lon="12.4356148"><ele>192.2</ele><time>2026-04-22T16:51:54.933Z</time></trkpt><trkpt lat="43.1212516" lon="12.4356461"><ele>192.0</ele><time>2026-04-22T16:51:56.92Z</time></trkpt><trkpt lat="43.1213408" lon="12.4356656"><ele>192.0</ele><time>2026-04-22T16:51:58.931Z</time></trkpt><trkpt lat="43.1214501" lon="12.4356652"><ele>192.0</ele><time>2026-04-22T16:52:01.027Z</time></trkpt><trkpt lat="43.1215179" lon="12.4356514"><ele>192.0</ele><time>2026-04-22T16:52:02.927Z</time></trkpt><trkpt lat="43.1216153" lon="12.4356363"><ele>192.0</ele><time>2026-04-22T16:52:04.903Z</time></trkpt><trkpt lat="43.121725" lon="12.4356008"><ele>192.0</ele><time>2026-04-22T16:52:07.039Z</time></trkpt><trkpt lat="43.1218258" lon="12.4355711"><ele>192.2</ele><time>2026-04-22T16:52:08.939Z</time></trkpt><trkpt lat="43.121929" lon="12.4355304"><ele>192.39999999999998</ele><time>2026-04-22T16:52:10.935Z</time></trkpt><trkpt lat="43.1220296" lon="12.4354952"><ele>192.60000000000002</ele><time>2026-04-22T16:52:12.959Z</time></trkpt><trkpt lat="43.1221258" lon="12.435475"><ele>192.8</ele><time>2026-04-22T16:52:14.953Z</time></trkpt><trkpt lat="43.1222222" lon="12.4354394"><ele>193.0</ele><time>2026-04-22T16:52:16.923Z</time></trkpt><trkpt lat="43.1223234" lon="12.4354137"><ele>193.0</ele><time>2026-04-22T16:52:18.937Z</time></trkpt><trkpt lat="43.1224271" lon="12.4353912"><ele>193.0</ele><time>2026-04-22T16:52:20.944Z</time></trkpt><trkpt lat="43.122529" lon="12.4353659"><ele>193.0</ele><time>2026-04-22T16:52:22.938Z</time></trkpt><trkpt lat="43.1226259" lon="12.4353365"><ele>193.0</ele><time>2026-04-22T16:52:24.941Z</time></trkpt><trkpt lat="43.1227231" lon="12.4352933"><ele>193.0</ele><time>2026-04-22T16:52:26.973Z</time></trkpt><trkpt lat="43.1228068" lon="12.4352375"><ele>193.0</ele><time>2026-04-22T16:52:28.95Z</time></trkpt><trkpt lat="43.1228975" lon="12.435184"><ele>193.0</ele><time>2026-04-22T16:52:31.119Z</time></trkpt><trkpt lat="43.1229738" lon="12.4351404"><ele>193.0</ele><time>2026-04-22T16:52:32.903Z</time></trkpt><trkpt lat="43.1230712" lon="12.4351041"><ele>193.0</ele><time>2026-04-22T16:52:34.909Z</time></trkpt><trkpt lat="43.1231675" lon="12.4350591"><ele>193.0</ele><time>2026-04-22T16:52:36.942Z</time></trkpt><trkpt lat="43.123257" lon="12.4350253"><ele>193.0</ele><time>2026-04-22T16:52:38.944Z</time></trkpt><trkpt lat="43.1233625" lon="12.4350024"><ele>193.0</ele><time>2026-04-22T16:52:40.95Z</time></trkpt><trkpt lat="43.1234675" lon="12.4349555"><ele>193.0</ele><time>2026-04-22T16:52:43.193Z</time></trkpt><trkpt lat="43.1235616" lon="12.4349197"><ele>193.0</ele><time>2026-04-22T16:52:45.082Z</time></trkpt><trkpt lat="43.1236563" lon="12.4348827"><ele>193.0</ele><time>2026-04-22T16:52:47.052Z</time></trkpt><trkpt lat="43.1237432" lon="12.434832"><ele>193.0</ele><time>2026-04-22T16:52:48.932Z</time></trkpt><trkpt lat="43.1238397" lon="12.4347914"><ele>193.0</ele><time>2026-04-22T16:52:50.944Z</time></trkpt><trkpt lat="43.1239331" lon="12.4347655"><ele>193.0</ele><time>2026-04-22T16:52:52.929Z</time></trkpt><trkpt lat="43.124032" lon="12.4347466"><ele>193.0</ele><time>2026-04-22T16:52:54.907Z</time></trkpt><trkpt lat="43.1241223" lon="12.4347521"><ele>193.0</ele><time>2026-04-22T16:52:56.873Z</time></trkpt><trkpt lat="43.1242066" lon="12.4348117"><ele>192.99999999999997</ele><time>2026-04-22T16:52:58.956Z</time></trkpt><trkpt lat="43.1242737" lon="12.4348996"><ele>193.0</ele><time>2026-04-22T16:53:00.905Z</time></trkpt><trkpt lat="43.1242989" lon="12.4349916"><ele>193.0</ele><time>2026-04-22T16:53:03.028Z</time></trkpt><trkpt lat="43.1242648" lon="12.4351147"><ele>193.0</ele><time>2026-04-22T16:53:04.893Z</time></trkpt><trkpt lat="43.1242449" lon="12.4351968"><ele>192.99999999999997</ele><time>2026-04-22T16:53:05.899Z</time></trkpt><trkpt lat="43.124213" lon="12.4353505"><ele>193.0</ele><time>2026-04-22T16:53:07.904Z</time></trkpt><trkpt lat="43.1241743" lon="12.4354806"><ele>193.33333333333331</ele><time>2026-04-22T16:53:09.895Z</time></trkpt><trkpt lat="43.1241569" lon="12.4356016"><ele>193.66666666666666</ele><time>2026-04-22T16:53:11.898Z</time></trkpt><trkpt lat="43.1241411" lon="12.4357097"><ele>194.0</ele><time>2026-04-22T16:53:13.919Z</time></trkpt><trkpt lat="43.1241646" lon="12.4358116"><ele>194.33333333333331</ele><time>2026-04-22T16:53:16.916Z</time></trkpt><trkpt lat="43.1242568" lon="12.4357835"><ele>194.66666666666666</ele><time>2026-04-22T16:53:19.905Z</time></trkpt><trkpt lat="43.1243496" lon="12.4357786"><ele>195.0</ele><time>2026-04-22T16:53:22.029Z</time></trkpt><trkpt lat="43.1244366" lon="12.4357702"><ele>195.0</ele><time>2026-04-22T16:53:23.909Z</time></trkpt><trkpt lat="43.1245311" lon="12.4357675"><ele>195.0</ele><time>2026-04-22T16:53:25.899Z</time></trkpt><trkpt lat="43.1246269" lon="12.4357604"><ele>195.0</ele><time>2026-04-22T16:53:27.869Z</time></trkpt><trkpt lat="43.1247269" lon="12.4357519"><ele>195.0</ele><time>2026-04-22T16:53:29.895Z</time></trkpt><trkpt lat="43.1248298" lon="12.4357436"><ele>195.0</ele><time>2026-04-22T16:53:31.899Z</time></trkpt><trkpt lat="43.1249381" lon="12.4357319"><ele>195.4</ele><time>2026-04-22T16:53:33.979Z</time></trkpt><trkpt lat="43.1250391" lon="12.4357334"><ele>195.8</ele><time>2026-04-22T16:53:35.944Z</time></trkpt><trkpt lat="43.1251428" lon="12.4357332"><ele>196.2</ele><time>2026-04-22T16:53:37.929Z</time></trkpt><trkpt lat="43.1252473" lon="12.4357173"><ele>196.6</ele><time>2026-04-22T16:53:39.914Z</time></trkpt><trkpt lat="43.1253507" lon="12.4356768"><ele>197.0</ele><time>2026-04-22T16:53:41.929Z</time></trkpt><trkpt lat="43.1254366" lon="12.4356215"><ele>197.0</ele><time>2026-04-22T16:53:43.907Z</time></trkpt><trkpt lat="43.1255043" lon="12.4355262"><ele>197.0</ele><time>2026-04-22T16:53:45.979Z</time></trkpt><trkpt lat="43.125568" lon="12.4354149"><ele>197.0</ele><time>2026-04-22T16:53:47.94Z</time></trkpt><trkpt lat="43.1256645" lon="12.4353404"><ele>197.0</ele><time>2026-04-22T16:53:49.924Z</time></trkpt><trkpt lat="43.125776" lon="12.435298"><ele>197.0</ele><time>2026-04-22T16:53:51.933Z</time></trkpt><trkpt lat="43.1258395" lon="12.4352836"><ele>197.2</ele><time>2026-04-22T16:53:52.959Z</time></trkpt><trkpt lat="43.1259454" lon="12.4352712"><ele>197.39999999999998</ele><time>2026-04-22T16:53:54.929Z</time></trkpt><trkpt lat="43.1260575" lon="12.4352545"><ele>197.60000000000002</ele><time>2026-04-22T16:53:56.943Z</time></trkpt><trkpt lat="43.1261704" lon="12.4352333"><ele>197.8</ele><time>2026-04-22T16:53:58.961Z</time></trkpt><trkpt lat="43.1262773" lon="12.4352361"><ele>198.0</ele><time>2026-04-22T16:54:00.921Z</time></trkpt><trkpt lat="43.1263792" lon="12.4352609"><ele>198.0</ele><time>2026-04-22T16:54:02.892Z</time></trkpt><trkpt lat="43.1264467" lon="12.4352704"><ele>198.0</ele><time>2026-04-22T16:54:04.941Z</time></trkpt><trkpt lat="43.126507" lon="12.4352101"><ele>198.0</ele><time>2026-04-22T16:54:06.918Z</time></trkpt><trkpt lat="43.1265656" lon="12.4350959"><ele>198.0</ele><time>2026-04-22T16:54:08.962Z</time></trkpt><trkpt lat="43.1266436" lon="12.4350516"><ele>198.0</ele><time>2026-04-22T16:54:10.915Z</time></trkpt><trkpt lat="43.1267695" lon="12.4350912"><ele>197.2</ele><time>2026-04-22T16:54:12.955Z</time></trkpt><trkpt lat="43.1268536" lon="12.4351438"><ele>196.4</ele><time>2026-04-22T16:54:14.135Z</time></trkpt><trkpt lat="43.1269488" lon="12.4352107"><ele>195.6</ele><time>2026-04-22T16:54:15.944Z</time></trkpt><trkpt lat="43.1270284" lon="12.435282"><ele>194.79999999999998</ele><time>2026-04-22T16:54:17.957Z</time></trkpt><trkpt lat="43.1270976" lon="12.4353183"><ele>194.0</ele><time>2026-04-22T16:54:19.915Z</time></trkpt><trkpt lat="43.1271748" lon="12.4353595"><ele>194.00000000000003</ele><time>2026-04-22T16:54:21.955Z</time></trkpt><trkpt lat="43.1272514" lon="12.4353969"><ele>194.0</ele><time>2026-04-22T16:54:23.997Z</time></trkpt><trkpt lat="43.127326" lon="12.4354575"><ele>194.0</ele><time>2026-04-22T16:54:25.989Z</time></trkpt><trkpt lat="43.1273825" lon="12.435508"><ele>194.0</ele><time>2026-04-22T16:54:27.189Z</time></trkpt><trkpt lat="43.127456" lon="12.4355722"><ele>194.00000000000003</ele><time>2026-04-22T16:54:28.917Z</time></trkpt><trkpt lat="43.1275305" lon="12.4356495"><ele>194.0</ele><time>2026-04-22T16:54:30.929Z</time></trkpt><trkpt lat="43.1276117" lon="12.4357188"><ele>194.6</ele><time>2026-04-22T16:54:32.953Z</time></trkpt><trkpt lat="43.1276934" lon="12.4357834"><ele>195.2</ele><time>2026-04-22T16:54:34.935Z</time></trkpt><trkpt lat="43.12777" lon="12.4358643"><ele>195.79999999999998</ele><time>2026-04-22T16:54:36.947Z</time></trkpt><trkpt lat="43.1278473" lon="12.4359314"><ele>196.39999999999998</ele><time>2026-04-22T16:54:38.939Z</time></trkpt><trkpt lat="43.1279211" lon="12.4360089"><ele>197.0</ele><time>2026-04-22T16:54:40.967Z</time></trkpt><trkpt lat="43.1280117" lon="12.4360765"><ele>197.0</ele><time>2026-04-22T16:54:43.05Z</time></trkpt><trkpt lat="43.1280952" lon="12.4361368"><ele>197.0</ele><time>2026-04-22T16:54:44.953Z</time></trkpt><trkpt lat="43.1281966" lon="12.436205"><ele>197.0</ele><time>2026-04-22T16:54:46.917Z</time></trkpt><trkpt lat="43.1282952" lon="12.4362467"><ele>197.0</ele><time>2026-04-22T16:54:48.93Z</time></trkpt><trkpt lat="43.1283962" lon="12.4363121"><ele>197.0</ele><time>2026-04-22T16:54:50.935Z</time></trkpt><trkpt lat="43.1284518" lon="12.4363544"><ele>196.8</ele><time>2026-04-22T16:54:52.049Z</time></trkpt><trkpt lat="43.1285469" lon="12.436433"><ele>196.6</ele><time>2026-04-22T16:54:53.972Z</time></trkpt><trkpt lat="43.1286431" lon="12.4365091"><ele>196.4</ele><time>2026-04-22T16:54:55.952Z</time></trkpt><trkpt lat="43.1287392" lon="12.4365832"><ele>196.20000000000002</ele><time>2026-04-22T16:54:57.943Z</time></trkpt><trkpt lat="43.12883" lon="12.4366649"><ele>196.0</ele><time>2026-04-22T16:54:59.96Z</time></trkpt><trkpt lat="43.1289233" lon="12.4367529"><ele>196.0</ele><time>2026-04-22T16:55:01.989Z</time></trkpt><trkpt lat="43.1290246" lon="12.4368328"><ele>196.0</ele><time>2026-04-22T16:55:03.944Z</time></trkpt><trkpt lat="43.1291266" lon="12.4369246"><ele>196.0</ele><time>2026-04-22T16:55:05.961Z</time></trkpt><trkpt lat="43.1292275" lon="12.4370124"><ele>196.0</ele><time>2026-04-22T16:55:08.008Z</time></trkpt><trkpt lat="43.1293172" lon="12.4370958"><ele>196.0</ele><time>2026-04-22T16:55:09.937Z</time></trkpt><trkpt lat="43.1294087" lon="12.4371804"><ele>196.0</ele><time>2026-04-22T16:55:11.912Z</time></trkpt><trkpt lat="43.1295341" lon="12.437272"><ele>196.0</ele><time>2026-04-22T16:55:14.024Z</time></trkpt><trkpt lat="43.1296005" lon="12.43733"><ele>196.0</ele><time>2026-04-22T16:55:14.924Z</time></trkpt><trkpt lat="43.1296517" lon="12.4373896"><ele>196.0</ele><time>2026-04-22T16:55:15.926Z</time></trkpt><trkpt lat="43.1297017" lon="12.4374522"><ele>195.99999999999997</ele><time>2026-04-22T16:55:16.942Z</time></trkpt><trkpt lat="43.1297492" lon="12.4375185"><ele>196.0</ele><time>2026-04-22T16:55:17.95Z</time></trkpt><trkpt lat="43.1297983" lon="12.4375828"><ele>196.0</ele><time>2026-04-22T16:55:18.954Z</time></trkpt><trkpt lat="43.1298915" lon="12.4376885"><ele>196.0</ele><time>2026-04-22T16:55:20.935Z</time></trkpt><trkpt lat="43.1299409" lon="12.4377455"><ele>195.99999999999997</ele><time>2026-04-22T16:55:21.925Z</time></trkpt><trkpt lat="43.1300296" lon="12.4378418"><ele>196.0</ele><time>2026-04-22T16:55:23.947Z</time></trkpt><trkpt lat="43.1301156" lon="12.4379535"><ele>197.0</ele><time>2026-04-22T16:55:25.948Z</time></trkpt><trkpt lat="43.1301987" lon="12.438063"><ele>198.0</ele><time>2026-04-22T16:55:27.937Z</time></trkpt><trkpt lat="43.1302782" lon="12.4381728"><ele>199.0</ele><time>2026-04-22T16:55:29.943Z</time></trkpt><trkpt lat="43.130351" lon="12.4382655"><ele>200.0</ele><time>2026-04-22T16:55:31.931Z</time></trkpt><trkpt lat="43.1304199" lon="12.4383879"><ele>201.0</ele><time>2026-04-22T16:55:33.939Z</time></trkpt><trkpt lat="43.1304722" lon="12.4385108"><ele>201.0</ele><time>2026-04-22T16:55:35.93Z</time></trkpt><trkpt lat="43.1305176" lon="12.4386352"><ele>201.0</ele><time>2026-04-22T16:55:38.035Z</time></trkpt><trkpt lat="43.130569" lon="12.438747"><ele>201.0</ele><time>2026-04-22T16:55:39.943Z</time></trkpt><trkpt lat="43.1306266" lon="12.4388477"><ele>201.0</ele><time>2026-04-22T16:55:41.938Z</time></trkpt><trkpt lat="43.1306912" lon="12.4389542"><ele>201.0</ele><time>2026-04-22T16:55:43.956Z</time></trkpt><trkpt lat="43.1307565" lon="12.4390616"><ele>200.4</ele><time>2026-04-22T16:55:45.948Z</time></trkpt><trkpt lat="43.1308189" lon="12.4391703"><ele>199.8</ele><time>2026-04-22T16:55:47.945Z</time></trkpt><trkpt lat="43.1308712" lon="12.43929"><ele>199.20000000000002</ele><time>2026-04-22T16:55:49.941Z</time></trkpt><trkpt lat="43.1309166" lon="12.4394069"><ele>198.60000000000002</ele><time>2026-04-22T16:55:51.931Z</time></trkpt><trkpt lat="43.1309598" lon="12.4395209"><ele>198.0</ele><time>2026-04-22T16:55:53.912Z</time></trkpt><trkpt lat="43.1310163" lon="12.439621"><ele>198.4</ele><time>2026-04-22T16:55:55.918Z</time></trkpt><trkpt lat="43.1310779" lon="12.4397442"><ele>198.8</ele><time>2026-04-22T16:55:57.932Z</time></trkpt><trkpt lat="43.1311402" lon="12.4398243"><ele>199.2</ele><time>2026-04-22T16:55:59.925Z</time></trkpt><trkpt lat="43.1312052" lon="12.4399164"><ele>199.6</ele><time>2026-04-22T16:56:01.946Z</time></trkpt><trkpt lat="43.1312594" lon="12.4400228"><ele>200.0</ele><time>2026-04-22T16:56:03.96Z</time></trkpt><trkpt lat="43.1313191" lon="12.4401271"><ele>200.0</ele><time>2026-04-22T16:56:05.926Z</time></trkpt><trkpt lat="43.1313815" lon="12.4402508"><ele>200.0</ele><time>2026-04-22T16:56:07.935Z</time></trkpt><trkpt lat="43.131451" lon="12.4403562"><ele>200.0</ele><time>2026-04-22T16:56:10.021Z</time></trkpt><trkpt lat="43.1315256" lon="12.4404555"><ele>200.0</ele><time>2026-04-22T16:56:12.024Z</time></trkpt><trkpt lat="43.1315979" lon="12.4405347"><ele>200.0</ele><time>2026-04-22T16:56:13.924Z</time></trkpt><trkpt lat="43.1316678" lon="12.4406268"><ele>200.0</ele><time>2026-04-22T16:56:15.971Z</time></trkpt><trkpt lat="43.1317347" lon="12.4407254"><ele>200.0</ele><time>2026-04-22T16:56:17.965Z</time></trkpt><trkpt lat="43.1317963" lon="12.4408314"><ele>200.0</ele><time>2026-04-22T16:56:19.938Z</time></trkpt><trkpt lat="43.1318638" lon="12.4409328"><ele>200.0</ele><time>2026-04-22T16:56:21.954Z</time></trkpt><trkpt lat="43.1319283" lon="12.4410312"><ele>200.0</ele><time>2026-04-22T16:56:23.932Z</time></trkpt><trkpt lat="43.1319878" lon="12.441137"><ele>200.0</ele><time>2026-04-22T16:56:25.964Z</time></trkpt><trkpt lat="43.1320472" lon="12.4412624"><ele>200.0</ele><time>2026-04-22T16:56:28.086Z</time></trkpt><trkpt lat="43.132101" lon="12.441375"><ele>200.0</ele><time>2026-04-22T16:56:29.932Z</time></trkpt><trkpt lat="43.1321504" lon="12.4414866"><ele>200.0</ele><time>2026-04-22T16:56:31.931Z</time></trkpt><trkpt lat="43.1322231" lon="12.4416026"><ele>200.0</ele><time>2026-04-22T16:56:33.96Z</time></trkpt><trkpt lat="43.132293" lon="12.4417186"><ele>200.0</ele><time>2026-04-22T16:56:35.932Z</time></trkpt><trkpt lat="43.1323425" lon="12.4417938"><ele>200.0</ele><time>2026-04-22T16:56:36.975Z</time></trkpt><trkpt lat="43.1324222" lon="12.4419251"><ele>200.0</ele><time>2026-04-22T16:56:38.943Z</time></trkpt><trkpt lat="43.1324803" lon="12.4420255"><ele>200.0</ele><time>2026-04-22T16:56:40.939Z</time></trkpt><trkpt lat="43.1325557" lon="12.4421412"><ele>200.0</ele><time>2026-04-22T16:56:42.928Z</time></trkpt><trkpt lat="43.1326174" lon="12.442245"><ele>200.0</ele><time>2026-04-22T16:56:45.037Z</time></trkpt><trkpt lat="43.1326745" lon="12.4423505"><ele>200.0</ele><time>2026-04-22T16:56:46.929Z</time></trkpt><trkpt lat="43.1327447" lon="12.4424647"><ele>200.0</ele><time>2026-04-22T16:56:48.925Z</time></trkpt><trkpt lat="43.1328095" lon="12.4425711"><ele>200.0</ele><time>2026-04-22T16:56:50.964Z</time></trkpt><trkpt lat="43.1328806" lon="12.4426884"><ele>200.0</ele><time>2026-04-22T16:56:52.907Z</time></trkpt><trkpt lat="43.1329538" lon="12.4428067"><ele>200.0</ele><time>2026-04-22T16:56:54.919Z</time></trkpt><trkpt lat="43.1330087" lon="12.4428943"><ele>200.0</ele><time>2026-04-22T16:56:56.935Z</time></trkpt><trkpt lat="43.1330883" lon="12.442965"><ele>200.0</ele><time>2026-04-22T16:56:59.037Z</time></trkpt><trkpt lat="43.1332364" lon="12.442943"><ele>200.0</ele><time>2026-04-22T16:57:01.027Z</time></trkpt><trkpt lat="43.1333262" lon="12.4429444"><ele>200.0</ele><time>2026-04-22T16:57:01.943Z</time></trkpt><trkpt lat="43.1334018" lon="12.4429857"><ele>200.00000000000003</ele><time>2026-04-22T16:57:02.946Z</time></trkpt><trkpt lat="43.1334638" lon="12.4430419"><ele>200.0</ele><time>2026-04-22T16:57:03.953Z</time></trkpt><trkpt lat="43.1335176" lon="12.443114"><ele>200.0</ele><time>2026-04-22T16:57:04.939Z</time></trkpt><trkpt lat="43.1335341" lon="12.443218"><ele>200.0</ele><time>2026-04-22T16:57:05.948Z</time></trkpt><trkpt lat="43.1335256" lon="12.4433263"><ele>200.00000000000003</ele><time>2026-04-22T16:57:06.918Z</time></trkpt><trkpt lat="43.1335295" lon="12.4434642"><ele>200.0</ele><time>2026-04-22T16:57:08.914Z</time></trkpt><trkpt lat="43.1335364" lon="12.4436478"><ele>200.00000000000003</ele><time>2026-04-22T16:57:10.908Z</time></trkpt><trkpt lat="43.1335422" lon="12.4437367"><ele>200.0</ele><time>2026-04-22T16:57:11.908Z</time></trkpt><trkpt lat="43.1335405" lon="12.4438258"><ele>200.0</ele><time>2026-04-22T16:57:12.919Z</time></trkpt><trkpt lat="43.1335339" lon="12.4439167"><ele>200.0</ele><time>2026-04-22T16:57:13.956Z</time></trkpt><trkpt lat="43.1335159" lon="12.4440082"><ele>200.00000000000003</ele><time>2026-04-22T16:57:14.921Z</time></trkpt><trkpt lat="43.1334953" lon="12.4441064"><ele>200.0</ele><time>2026-04-22T16:57:16.04Z</time></trkpt><trkpt lat="43.1334532" lon="12.4442568"><ele>199.6</ele><time>2026-04-22T16:57:17.945Z</time></trkpt><trkpt lat="43.1334301" lon="12.4443384"><ele>199.2</ele><time>2026-04-22T16:57:18.962Z</time></trkpt><trkpt lat="43.1333853" lon="12.4444933"><ele>198.8</ele><time>2026-04-22T16:57:20.911Z</time></trkpt><trkpt lat="43.1333636" lon="12.4445772"><ele>198.4</ele><time>2026-04-22T16:57:21.958Z</time></trkpt><trkpt lat="43.1333277" lon="12.4447309"><ele>198.0</ele><time>2026-04-22T16:57:23.934Z</time></trkpt><trkpt lat="43.133305" lon="12.4448841"><ele>198.4</ele><time>2026-04-22T16:57:25.995Z</time></trkpt><trkpt lat="43.1332778" lon="12.4450348"><ele>198.8</ele><time>2026-04-22T16:57:27.929Z</time></trkpt><trkpt lat="43.133258" lon="12.44519"><ele>199.2</ele><time>2026-04-22T16:57:29.947Z</time></trkpt><trkpt lat="43.1332355" lon="12.4453322"><ele>199.6</ele><time>2026-04-22T16:57:31.933Z</time></trkpt><trkpt lat="43.1332068" lon="12.445477"><ele>200.0</ele><time>2026-04-22T16:57:33.932Z</time></trkpt><trkpt lat="43.1331853" lon="12.4456171"><ele>200.0</ele><time>2026-04-22T16:57:35.931Z</time></trkpt><trkpt lat="43.1331666" lon="12.445753"><ele>200.0</ele><time>2026-04-22T16:57:37.926Z</time></trkpt><trkpt lat="43.1331617" lon="12.445882"><ele>200.0</ele><time>2026-04-22T16:57:39.943Z</time></trkpt><trkpt lat="43.1331643" lon="12.4460044"><ele>200.0</ele><time>2026-04-22T16:57:41.964Z</time></trkpt><trkpt lat="43.1331756" lon="12.4461233"><ele>200.0</ele><time>2026-04-22T16:57:43.96Z</time></trkpt><trkpt lat="43.1331867" lon="12.4462368"><ele>200.00000000000003</ele><time>2026-04-22T16:57:45.914Z</time></trkpt><trkpt lat="43.1332079" lon="12.4463495"><ele>200.0</ele><time>2026-04-22T16:57:47.932Z</time></trkpt><trkpt lat="43.1332216" lon="12.4464423"><ele>200.0</ele><time>2026-04-22T16:57:49.949Z</time></trkpt><trkpt lat="43.1332311" lon="12.4465475"><ele>200.0</ele><time>2026-04-22T16:57:51.949Z</time></trkpt><trkpt lat="43.1332542" lon="12.4466594"><ele>200.00000000000003</ele><time>2026-04-22T16:57:53.958Z</time></trkpt><trkpt lat="43.133281" lon="12.4467843"><ele>200.0</ele><time>2026-04-22T16:57:55.98Z</time></trkpt><trkpt lat="43.1333117" lon="12.4468651"><ele>199.71428571428572</ele><time>2026-04-22T16:57:57.951Z</time></trkpt><trkpt lat="43.1333343" lon="12.4469587"><ele>199.42857142857144</ele><time>2026-04-22T16:58:00.95Z</time></trkpt><trkpt lat="43.1333455" lon="12.4470516"><ele>199.14285714285717</ele><time>2026-04-22T16:58:03.956Z</time></trkpt><trkpt lat="43.1333578" lon="12.4471523"><ele>198.85714285714286</ele><time>2026-04-22T16:58:07.027Z</time></trkpt><trkpt lat="43.1333581" lon="12.4472501"><ele>198.57142857142856</ele><time>2026-04-22T16:58:09.942Z</time></trkpt><trkpt lat="43.1333521" lon="12.447355"><ele>198.2857142857143</ele><time>2026-04-22T16:58:12.916Z</time></trkpt><trkpt lat="43.1333816" lon="12.4474592"><ele>198.0</ele><time>2026-04-22T16:58:15.942Z</time></trkpt><trkpt lat="43.1334532" lon="12.4474765"><ele>197.5</ele><time>2026-04-22T16:58:19.003Z</time></trkpt><trkpt lat="43.1335357" lon="12.4474404"><ele>197.0</ele><time>2026-04-22T16:58:21.999Z</time></trkpt><trkpt lat="43.1336147" lon="12.4474107"><ele>196.5</ele><time>2026-04-22T16:58:24.972Z</time></trkpt><trkpt lat="43.1336984" lon="12.4473732"><ele>196.0</ele><time>2026-04-22T16:58:27.975Z</time></trkpt><trkpt lat="43.133776" lon="12.4473333"><ele>195.5</ele><time>2026-04-22T16:58:30.95Z</time></trkpt><trkpt lat="43.1338515" lon="12.4472974"><ele>195.0</ele><time>2026-04-22T16:58:33.98Z</time></trkpt><trkpt lat="43.1339273" lon="12.447253"><ele>195.0</ele><time>2026-04-22T16:58:36.999Z</time></trkpt><trkpt lat="43.1340083" lon="12.4472174"><ele>195.0</ele><time>2026-04-22T16:58:39.948Z</time></trkpt><trkpt lat="43.1341" lon="12.447176"><ele>195.0</ele><time>2026-04-22T16:58:42.974Z</time></trkpt><trkpt lat="43.13417" lon="12.4471392"><ele>195.0</ele><time>2026-04-22T16:58:44.945Z</time></trkpt><trkpt lat="43.1342703" lon="12.4470866"><ele>195.0</ele><time>2026-04-22T16:58:47.121Z</time></trkpt><trkpt lat="43.1343782" lon="12.4470776"><ele>195.33333333333334</ele><time>2026-04-22T16:58:48.972Z</time></trkpt><trkpt lat="43.13443" lon="12.4471334"><ele>195.66666666666669</ele><time>2026-04-22T16:58:49.983Z</time></trkpt><trkpt lat="43.1344403" lon="12.4473039"><ele>196.0</ele><time>2026-04-22T16:58:51.913Z</time></trkpt><trkpt lat="43.1344428" lon="12.447402"><ele>196.33333333333334</ele><time>2026-04-22T16:58:52.936Z</time></trkpt><trkpt lat="43.1344458" lon="12.4475055"><ele>196.66666666666669</ele><time>2026-04-22T16:58:53.937Z</time></trkpt><trkpt lat="43.1344618" lon="12.4476184"><ele>197.0</ele><time>2026-04-22T16:58:54.939Z</time></trkpt><trkpt lat="43.1344903" lon="12.4477354"><ele>197.00000000000003</ele><time>2026-04-22T16:58:55.987Z</time></trkpt><trkpt lat="43.1345308" lon="12.4478273"><ele>197.0</ele><time>2026-04-22T16:58:56.964Z</time></trkpt><trkpt lat="43.1345823" lon="12.4479037"><ele>197.0</ele><time>2026-04-22T16:58:57.975Z</time></trkpt><trkpt lat="43.1346296" lon="12.447968"><ele>197.0</ele><time>2026-04-22T16:58:58.931Z</time></trkpt><trkpt lat="43.1346775" lon="12.4480309"><ele>197.00000000000003</ele><time>2026-04-22T16:58:59.979Z</time></trkpt><trkpt lat="43.1347517" lon="12.4481611"><ele>197.0</ele><time>2026-04-22T16:59:02.005Z</time></trkpt><trkpt lat="43.1348215" lon="12.4482665"><ele>196.50000000000003</ele><time>2026-04-22T16:59:03.951Z</time></trkpt><trkpt lat="43.1348941" lon="12.4483678"><ele>196.0</ele><time>2026-04-22T16:59:05.956Z</time></trkpt><trkpt lat="43.1349609" lon="12.44845"><ele>195.5</ele><time>2026-04-22T16:59:07.952Z</time></trkpt><trkpt lat="43.1350046" lon="12.448521"><ele>195.0</ele><time>2026-04-22T16:59:09.945Z</time></trkpt><trkpt lat="43.1350634" lon="12.4486138"><ele>194.50000000000003</ele><time>2026-04-22T16:59:12.988Z</time></trkpt><trkpt lat="43.1351181" lon="12.4486572"><ele>194.0</ele><time>2026-04-22T16:59:14.956Z</time></trkpt><trkpt lat="43.1351667" lon="12.4487153"><ele>194.00000000000003</ele><time>2026-04-22T16:59:16.966Z</time></trkpt><trkpt lat="43.13522" lon="12.448784"><ele>194.0</ele><time>2026-04-22T16:59:18.965Z</time></trkpt><trkpt lat="43.1352697" lon="12.4488534"><ele>194.0</ele><time>2026-04-22T16:59:20.943Z</time></trkpt><trkpt lat="43.1353529" lon="12.4488805"><ele>194.0</ele><time>2026-04-22T16:59:22.978Z</time></trkpt><trkpt lat="43.1354163" lon="12.4488356"><ele>194.00000000000003</ele><time>2026-04-22T16:59:24.965Z</time></trkpt><trkpt lat="43.1354971" lon="12.4487585"><ele>194.0</ele><time>2026-04-22T16:59:27.966Z</time></trkpt><trkpt lat="43.1355389" lon="12.4486816"><ele>194.00000000000003</ele><time>2026-04-22T16:59:29.953Z</time></trkpt><trkpt lat="43.135591" lon="12.4486062"><ele>194.0</ele><time>2026-04-22T16:59:31.993Z</time></trkpt><trkpt lat="43.1356381" lon="12.4485294"><ele>194.0</ele><time>2026-04-22T16:59:33.973Z</time></trkpt><trkpt lat="43.135694" lon="12.4484654"><ele>194.0</ele><time>2026-04-22T16:59:35.952Z</time></trkpt><trkpt lat="43.1357555" lon="12.4484118"><ele>194.00000000000003</ele><time>2026-04-22T16:59:37.935Z</time></trkpt><trkpt lat="43.1358112" lon="12.4483509"><ele>194.0</ele><time>2026-04-22T16:59:40.008Z</time></trkpt><trkpt lat="43.1358935" lon="12.4483058"><ele>194.28571428571428</ele><time>2026-04-22T16:59:42.934Z</time></trkpt><trkpt lat="43.1359528" lon="12.4482552"><ele>194.57142857142858</ele><time>2026-04-22T16:59:45.963Z</time></trkpt><trkpt lat="43.1360062" lon="12.4481821"><ele>194.85714285714286</ele><time>2026-04-22T16:59:48.952Z</time></trkpt><trkpt lat="43.1360492" lon="12.4481118"><ele>195.14285714285714</ele><time>2026-04-22T16:59:50.955Z</time></trkpt><trkpt lat="43.1360777" lon="12.4480143"><ele>195.42857142857144</ele><time>2026-04-22T16:59:52.959Z</time></trkpt><trkpt lat="43.1361104" lon="12.4479142"><ele>195.71428571428572</ele><time>2026-04-22T16:59:54.956Z</time></trkpt><trkpt lat="43.136137" lon="12.44781"><ele>196.0</ele><time>2026-04-22T16:59:56.944Z</time></trkpt><trkpt lat="43.1361496" lon="12.4477051"><ele>196.49999999999997</ele><time>2026-04-22T16:59:58.967Z</time></trkpt><trkpt lat="43.1361206" lon="12.4476077"><ele>197.0</ele><time>2026-04-22T17:00:00.969Z</time></trkpt><trkpt lat="43.1360818" lon="12.4475238"><ele>197.5</ele><time>2026-04-22T17:00:02.987Z</time></trkpt><trkpt lat="43.1360264" lon="12.4474525"><ele>198.0</ele><time>2026-04-22T17:00:04.987Z</time></trkpt><trkpt lat="43.1359643" lon="12.4473917"><ele>198.49999999999997</ele><time>2026-04-22T17:00:06.961Z</time></trkpt><trkpt lat="43.1358963" lon="12.447334"><ele>199.0</ele><time>2026-04-22T17:00:08.969Z</time></trkpt><trkpt lat="43.1358353" lon="12.4472658"><ele>198.99999999999997</ele><time>2026-04-22T17:00:10.943Z</time></trkpt><trkpt lat="43.1357768" lon="12.4472104"><ele>199.0</ele><time>2026-04-22T17:00:12.981Z</time></trkpt><trkpt lat="43.1357258" lon="12.447149"><ele>199.0</ele><time>2026-04-22T17:00:14.971Z</time></trkpt><trkpt lat="43.1357181" lon="12.4470487"><ele>199.0</ele><time>2026-04-22T17:00:16.966Z</time></trkpt><trkpt lat="43.1357681" lon="12.4469608"><ele>199.0</ele><time>2026-04-22T17:00:18.981Z</time></trkpt><trkpt lat="43.1358232" lon="12.4468914"><ele>198.99999999999997</ele><time>2026-04-22T17:00:20.981Z</time></trkpt><trkpt lat="43.135878" lon="12.4468355"><ele>199.0</ele><time>2026-04-22T17:00:22.95Z</time></trkpt><trkpt lat="43.1359378" lon="12.446794"><ele>199.14285714285714</ele><time>2026-04-22T17:00:24.963Z</time></trkpt><trkpt lat="43.1359964" lon="12.4467209"><ele>199.28571428571428</ele><time>2026-04-22T17:00:27.971Z</time></trkpt><trkpt lat="43.1360626" lon="12.4466463"><ele>199.42857142857144</ele><time>2026-04-22T17:00:30.969Z</time></trkpt><trkpt lat="43.1361141" lon="12.4465799"><ele>199.57142857142856</ele><time>2026-04-22T17:00:33.968Z</time></trkpt><trkpt lat="43.1361653" lon="12.4465229"><ele>199.71428571428572</ele><time>2026-04-22T17:00:36.956Z</time></trkpt><trkpt lat="43.1362058" lon="12.4464507"><ele>199.85714285714286</ele><time>2026-04-22T17:00:39.97Z</time></trkpt><trkpt lat="43.1362588" lon="12.4463746"><ele>200.0</ele><time>2026-04-22T17:00:43.977Z</time></trkpt><trkpt lat="43.1363124" lon="12.4463253"><ele>200.33333333333334</ele><time>2026-04-22T17:00:46.923Z</time></trkpt><trkpt lat="43.1363621" lon="12.4462499"><ele>200.66666666666669</ele><time>2026-04-22T17:00:49.954Z</time></trkpt><trkpt lat="43.1364191" lon="12.4461476"><ele>201.0</ele><time>2026-04-22T17:00:53.945Z</time></trkpt><trkpt lat="43.136488" lon="12.4461396"><ele>201.33333333333331</ele><time>2026-04-22T17:00:57.954Z</time></trkpt><trkpt lat="43.1365443" lon="12.4461783"><ele>201.66666666666666</ele><time>2026-04-22T17:00:59.98Z</time></trkpt><trkpt lat="43.1365836" lon="12.4462589"><ele>202.0</ele><time>2026-04-22T17:01:02.967Z</time></trkpt><trkpt lat="43.1366363" lon="12.4463421"><ele>202.16666666666666</ele><time>2026-04-22T17:01:05.952Z</time></trkpt><trkpt lat="43.1366896" lon="12.4464136"><ele>202.33333333333331</ele><time>2026-04-22T17:01:08.968Z</time></trkpt><trkpt lat="43.13674" lon="12.4464909"><ele>202.5</ele><time>2026-04-22T17:01:11.988Z</time></trkpt><trkpt lat="43.136788" lon="12.4465558"><ele>202.66666666666669</ele><time>2026-04-22T17:01:14.988Z</time></trkpt><trkpt lat="43.1368466" lon="12.4466618"><ele>202.83333333333334</ele><time>2026-04-22T17:01:18.057Z</time></trkpt><trkpt lat="43.1368994" lon="12.4467144"><ele>203.0</ele><time>2026-04-22T17:01:20.983Z</time></trkpt><trkpt lat="43.1369359" lon="12.4468079"><ele>203.00000000000003</ele><time>2026-04-22T17:02:09.091Z</time></trkpt><trkpt lat="43.1369397" lon="12.4466981"><ele>203.0</ele><time>2026-04-22T17:02:26.036Z</time></trkpt><trkpt lat="43.1369605" lon="12.4465802"><ele>203.0</ele><time>2026-04-22T17:02:29.004Z</time></trkpt><trkpt lat="43.1370236" lon="12.4465005"><ele>203.0</ele><time>2026-04-22T17:02:31.974Z</time></trkpt><trkpt lat="43.1370884" lon="12.4464231"><ele>203.00000000000003</ele><time>2026-04-22T17:02:35.047Z</time></trkpt><trkpt lat="43.1371502" lon="12.4463492"><ele>203.0</ele><time>2026-04-22T17:02:38.003Z</time></trkpt><trkpt lat="43.137206" lon="12.4462943"><ele>203.16666666666669</ele><time>2026-04-22T17:02:45.119Z</time></trkpt><trkpt lat="43.1372386" lon="12.4462201"><ele>203.33333333333334</ele><time>2026-04-22T17:02:48.03Z</time></trkpt><trkpt lat="43.1373032" lon="12.4461291"><ele>203.5</ele><time>2026-04-22T17:02:50.984Z</time></trkpt><trkpt lat="43.1373561" lon="12.4460441"><ele>203.66666666666669</ele><time>2026-04-22T17:02:55.029Z</time></trkpt><trkpt lat="43.137399" lon="12.4459602"><ele>203.83333333333334</ele><time>2026-04-22T17:02:59.026Z</time></trkpt><trkpt lat="43.137463" lon="12.4458939"><ele>204.0</ele><time>2026-04-22T17:03:04.067Z</time></trkpt><trkpt lat="43.1375175" lon="12.4458224"><ele>204.57142857142858</ele><time>2026-04-22T17:03:08.024Z</time></trkpt><trkpt lat="43.1375685" lon="12.4457333"><ele>205.14285714285717</ele><time>2026-04-22T17:03:12.204Z</time></trkpt><trkpt lat="43.1376182" lon="12.4456672"><ele>205.71428571428572</ele><time>2026-04-22T17:03:16.049Z</time></trkpt><trkpt lat="43.1376712" lon="12.4455996"><ele>206.28571428571428</ele><time>2026-04-22T17:03:20.027Z</time></trkpt><trkpt lat="43.1377136" lon="12.4455126"><ele>206.85714285714286</ele><time>2026-04-22T17:03:25.046Z</time></trkpt><trkpt lat="43.1377668" lon="12.445449"><ele>207.42857142857142</ele><time>2026-04-22T17:03:29.072Z</time></trkpt><trkpt lat="43.1377933" lon="12.4453541"><ele>208.0</ele><time>2026-04-22T17:03:34.023Z</time></trkpt><trkpt lat="43.1377482" lon="12.4452932"><ele>208.85714285714286</ele><time>2026-04-22T17:03:37.003Z</time></trkpt><trkpt lat="43.1376978" lon="12.4452103"><ele>209.71428571428572</ele><time>2026-04-22T17:03:41.059Z</time></trkpt><trkpt lat="43.1376738" lon="12.4451227"><ele>210.57142857142858</ele><time>2026-04-22T17:03:46.014Z</time></trkpt><trkpt lat="43.1376266" lon="12.4450475"><ele>211.42857142857144</ele><time>2026-04-22T17:03:51.042Z</time></trkpt><trkpt lat="43.1375737" lon="12.4449801"><ele>212.28571428571428</ele><time>2026-04-22T17:03:54.026Z</time></trkpt><trkpt lat="43.1375224" lon="12.4448964"><ele>213.14285714285717</ele><time>2026-04-22T17:03:56.974Z</time></trkpt><trkpt lat="43.1374721" lon="12.4448194"><ele>214.0</ele><time>2026-04-22T17:04:06.986Z</time></trkpt><trkpt lat="43.1374361" lon="12.4447459"><ele>214.00000000000003</ele><time>2026-04-22T17:04:09.002Z</time></trkpt><trkpt lat="43.1374121" lon="12.4446469"><ele>214.0</ele><time>2026-04-22T17:04:12.006Z</time></trkpt><trkpt lat="43.1374389" lon="12.4447335"><ele>214.0</ele><time>2026-04-22T17:04:18.062Z</time></trkpt><trkpt lat="43.1374709" lon="12.4448273"><ele>214.0</ele><time>2026-04-22T17:04:20.999Z</time></trkpt><trkpt lat="43.1375214" lon="12.4449142"><ele>214.0</ele><time>2026-04-22T17:04:24.042Z</time></trkpt><trkpt lat="43.1375651" lon="12.4449973"><ele>214.00000000000003</ele><time>2026-04-22T17:04:27.027Z</time></trkpt><trkpt lat="43.1376029" lon="12.4450664"><ele>214.0</ele><time>2026-04-22T17:04:30.047Z</time></trkpt><trkpt lat="43.1376475" lon="12.4451326"><ele>213.99999999999997</ele><time>2026-04-22T17:04:33.03Z</time></trkpt><trkpt lat="43.1376946" lon="12.4451977"><ele>214.0</ele><time>2026-04-22T17:04:36.97Z</time></trkpt><trkpt lat="43.1377447" lon="12.4452816"><ele>214.0</ele><time>2026-04-22T17:04:41.999Z</time></trkpt><trkpt lat="43.1378214" lon="12.4452959"><ele>214.0</ele><time>2026-04-22T17:04:48.983Z</time></trkpt><trkpt lat="43.1378786" lon="12.4452289"><ele>213.99999999999997</ele><time>2026-04-22T17:04:54.029Z</time></trkpt><trkpt lat="43.1379389" lon="12.445144"><ele>214.0</ele><time>2026-04-22T17:04:58.058Z</time></trkpt><trkpt lat="43.1379869" lon="12.4450765"><ele>214.00000000000003</ele><time>2026-04-22T17:05:02.03Z</time></trkpt><trkpt lat="43.1380398" lon="12.4450086"><ele>214.0</ele><time>2026-04-22T17:05:06.061Z</time></trkpt><trkpt lat="43.1380912" lon="12.4449361"><ele>214.0</ele><time>2026-04-22T17:05:10.004Z</time></trkpt><trkpt lat="43.1381399" lon="12.4448728"><ele>214.0</ele><time>2026-04-22T17:05:14.003Z</time></trkpt><trkpt lat="43.138198" lon="12.4448021"><ele>214.0</ele><time>2026-04-22T17:05:18.019Z</time></trkpt><trkpt lat="43.1382459" lon="12.4447352"><ele>214.00000000000003</ele><time>2026-04-22T17:05:22.035Z</time></trkpt><trkpt lat="43.1382953" lon="12.4446571"><ele>214.0</ele><time>2026-04-22T17:05:26.031Z</time></trkpt><trkpt lat="43.1383277" lon="12.4445815"><ele>216.2857142857143</ele><time>2026-04-22T17:05:47.993Z</time></trkpt><trkpt lat="43.138388" lon="12.4445528"><ele>218.57142857142856</ele><time>2026-04-22T17:05:51.975Z</time></trkpt><trkpt lat="43.1384383" lon="12.4444853"><ele>220.85714285714283</ele><time>2026-04-22T17:05:55.975Z</time></trkpt><trkpt lat="43.1385059" lon="12.4444162"><ele>223.14285714285714</ele><time>2026-04-22T17:05:59.967Z</time></trkpt><trkpt lat="43.138549" lon="12.4443445"><ele>225.42857142857142</ele><time>2026-04-22T17:06:03.077Z</time></trkpt><trkpt lat="43.138599" lon="12.444271"><ele>227.7142857142857</ele><time>2026-04-22T17:06:06.955Z</time></trkpt><trkpt lat="43.1386522" lon="12.444184"><ele>229.99999999999997</ele><time>2026-04-22T17:06:10.95Z</time></trkpt><trkpt lat="43.1387019" lon="12.4441265"><ele>229.99999999999997</ele><time>2026-04-22T17:06:14.994Z</time></trkpt><trkpt lat="43.1387561" lon="12.4440654"><ele>230.0</ele><time>2026-04-22T17:06:19.944Z</time></trkpt><trkpt lat="43.138719" lon="12.4439928"><ele>229.99999999999997</ele><time>2026-04-22T17:06:38.071Z</time></trkpt><trkpt lat="43.1386688" lon="12.4440611"><ele>229.99999999999997</ele><time>2026-04-22T17:06:48.99Z</time></trkpt><trkpt lat="43.1386285" lon="12.4441488"><ele>230.0</ele><time>2026-04-22T17:06:53.975Z</time></trkpt><trkpt lat="43.1385755" lon="12.4442297"><ele>229.99999999999997</ele><time>2026-04-22T17:06:58.949Z</time></trkpt><trkpt lat="43.1385098" lon="12.444242"><ele>229.99999999999997</ele><time>2026-04-22T17:07:19.963Z</time></trkpt><trkpt lat="43.1385256" lon="12.444357"><ele>230.00000000000003</ele><time>2026-04-22T17:07:29.964Z</time></trkpt><trkpt lat="43.1384805" lon="12.4444489"><ele>230.0</ele><time>2026-04-22T17:07:33.022Z</time></trkpt><trkpt lat="43.1383929" lon="12.4445469"><ele>230.0</ele><time>2026-04-22T17:07:35.976Z</time></trkpt><trkpt lat="43.1383194" lon="12.4446193"><ele>230.0</ele><time>2026-04-22T17:07:37.972Z</time></trkpt><trkpt lat="43.1382515" lon="12.4446935"><ele>230.00000000000003</ele><time>2026-04-22T17:07:39.975Z</time></trkpt><trkpt lat="43.1382021" lon="12.4447638"><ele>230.0</ele><time>2026-04-22T17:07:41.97Z</time></trkpt><trkpt lat="43.138139" lon="12.4448633"><ele>227.33333333333334</ele><time>2026-04-22T17:07:44.958Z</time></trkpt><trkpt lat="43.1380826" lon="12.444937"><ele>224.66666666666669</ele><time>2026-04-22T17:07:48.031Z</time></trkpt><trkpt lat="43.1380224" lon="12.445017"><ele>222.0</ele><time>2026-04-22T17:07:51.973Z</time></trkpt><trkpt lat="43.1379685" lon="12.4451004"><ele>219.33333333333331</ele><time>2026-04-22T17:07:54.966Z</time></trkpt><trkpt lat="43.1379134" lon="12.4451725"><ele>216.66666666666666</ele><time>2026-04-22T17:07:58.013Z</time></trkpt><trkpt lat="43.1378735" lon="12.4452489"><ele>214.0</ele><time>2026-04-22T17:07:59.986Z</time></trkpt><trkpt lat="43.1378061" lon="12.4453748"><ele>212.99999999999997</ele><time>2026-04-22T17:08:02.956Z</time></trkpt><trkpt lat="43.1377269" lon="12.4454979"><ele>212.0</ele><time>2026-04-22T17:08:04.971Z</time></trkpt><trkpt lat="43.1376775" lon="12.4455714"><ele>211.0</ele><time>2026-04-22T17:08:05.96Z</time></trkpt><trkpt lat="43.1376228" lon="12.4456528"><ele>210.0</ele><time>2026-04-22T17:08:06.946Z</time></trkpt><trkpt lat="43.1375761" lon="12.4457317"><ele>208.99999999999997</ele><time>2026-04-22T17:08:07.976Z</time></trkpt><trkpt lat="43.1375308" lon="12.4458031"><ele>208.0</ele><time>2026-04-22T17:08:08.992Z</time></trkpt><trkpt lat="43.1374813" lon="12.4458821"><ele>208.0</ele><time>2026-04-22T17:08:09.945Z</time></trkpt><trkpt lat="43.1374225" lon="12.4459768"><ele>208.0</ele><time>2026-04-22T17:08:10.975Z</time></trkpt><trkpt lat="43.1373592" lon="12.446067"><ele>208.0</ele><time>2026-04-22T17:08:11.999Z</time></trkpt><trkpt lat="43.1372976" lon="12.4461533"><ele>208.0</ele><time>2026-04-22T17:08:12.963Z</time></trkpt><trkpt lat="43.1372334" lon="12.4462487"><ele>208.0</ele><time>2026-04-22T17:08:13.957Z</time></trkpt><trkpt lat="43.1371672" lon="12.4463447"><ele>207.0</ele><time>2026-04-22T17:08:14.942Z</time></trkpt><trkpt lat="43.1371087" lon="12.4464108"><ele>206.0</ele><time>2026-04-22T17:08:15.956Z</time></trkpt><trkpt lat="43.1370294" lon="12.4465073"><ele>205.0</ele><time>2026-04-22T17:08:17.938Z</time></trkpt><trkpt lat="43.1369814" lon="12.4465852"><ele>204.0</ele><time>2026-04-22T17:08:19.936Z</time></trkpt><trkpt lat="43.1368708" lon="12.4465729"><ele>203.0</ele><time>2026-04-22T17:08:22.977Z</time></trkpt><trkpt lat="43.1368129" lon="12.4464699"><ele>203.0</ele><time>2026-04-22T17:08:26.009Z</time></trkpt><trkpt lat="43.1367635" lon="12.4463962"><ele>203.0</ele><time>2026-04-22T17:08:27.979Z</time></trkpt><trkpt lat="43.1367155" lon="12.4463306"><ele>203.0</ele><time>2026-04-22T17:08:29.989Z</time></trkpt><trkpt lat="43.1366745" lon="12.4462544"><ele>203.0</ele><time>2026-04-22T17:08:31.991Z</time></trkpt><trkpt lat="43.1366274" lon="12.446193"><ele>203.0</ele><time>2026-04-22T17:08:33.98Z</time></trkpt><trkpt lat="43.1365862" lon="12.4461235"><ele>203.0</ele><time>2026-04-22T17:08:35.957Z</time></trkpt><trkpt lat="43.1365472" lon="12.4460436"><ele>203.0</ele><time>2026-04-22T17:08:38.973Z</time></trkpt><trkpt lat="43.1364677" lon="12.4461108"><ele>202.75</ele><time>2026-04-22T17:08:44.957Z</time></trkpt><trkpt lat="43.1364053" lon="12.4462227"><ele>202.5</ele><time>2026-04-22T17:08:46.948Z</time></trkpt><trkpt lat="43.1363421" lon="12.4463335"><ele>202.25</ele><time>2026-04-22T17:08:48.946Z</time></trkpt><trkpt lat="43.1362321" lon="12.4465021"><ele>202.0</ele><time>2026-04-22T17:08:51.986Z</time></trkpt><trkpt lat="43.136144" lon="12.4465974"><ele>201.6</ele><time>2026-04-22T17:08:54.018Z</time></trkpt><trkpt lat="43.1360561" lon="12.4466856"><ele>201.2</ele><time>2026-04-22T17:08:55.975Z</time></trkpt><trkpt lat="43.1359774" lon="12.4467983"><ele>200.8</ele><time>2026-04-22T17:08:57.961Z</time></trkpt><trkpt lat="43.1358917" lon="12.4468812"><ele>200.4</ele><time>2026-04-22T17:08:59.99Z</time></trkpt><trkpt lat="43.1358015" lon="12.4469617"><ele>200.0</ele><time>2026-04-22T17:09:01.971Z</time></trkpt><trkpt lat="43.1357163" lon="12.4470471"><ele>199.50000000000003</ele><time>2026-04-22T17:09:03.978Z</time></trkpt><trkpt lat="43.1356342" lon="12.4471304"><ele>199.0</ele><time>2026-04-22T17:09:05.977Z</time></trkpt><trkpt lat="43.1355619" lon="12.4472138"><ele>198.5</ele><time>2026-04-22T17:09:07.965Z</time></trkpt><trkpt lat="43.1355056" lon="12.4472956"><ele>198.0</ele><time>2026-04-22T17:09:09.955Z</time></trkpt><trkpt lat="43.1354481" lon="12.4473312"><ele>197.50000000000003</ele><time>2026-04-22T17:09:11.953Z</time></trkpt><trkpt lat="43.1353675" lon="12.447299"><ele>197.0</ele><time>2026-04-22T17:09:13.954Z</time></trkpt><trkpt lat="43.1353022" lon="12.4473435"><ele>197.00000000000003</ele><time>2026-04-22T17:09:15.999Z</time></trkpt><trkpt lat="43.1352364" lon="12.4473853"><ele>197.0</ele><time>2026-04-22T17:09:18.013Z</time></trkpt><trkpt lat="43.1351778" lon="12.4474247"><ele>197.0</ele><time>2026-04-22T17:09:19.971Z</time></trkpt><trkpt lat="43.1351014" lon="12.4474391"><ele>197.0</ele><time>2026-04-22T17:09:22.96Z</time></trkpt><trkpt lat="43.1350318" lon="12.4473996"><ele>197.00000000000003</ele><time>2026-04-22T17:09:27.003Z</time></trkpt><trkpt lat="43.1349613" lon="12.4473311"><ele>197.0</ele><time>2026-04-22T17:09:31.062Z</time></trkpt><trkpt lat="43.1348889" lon="12.4472416"><ele>197.0</ele><time>2026-04-22T17:09:33.961Z</time></trkpt><trkpt lat="43.1348354" lon="12.4471761"><ele>197.0</ele><time>2026-04-22T17:09:35.985Z</time></trkpt><trkpt lat="43.1347696" lon="12.447088"><ele>197.0</ele><time>2026-04-22T17:09:37.991Z</time></trkpt><trkpt lat="43.1346973" lon="12.4469994"><ele>197.0</ele><time>2026-04-22T17:09:39.957Z</time></trkpt><trkpt lat="43.1346126" lon="12.446909"><ele>197.0</ele><time>2026-04-22T17:09:41.96Z</time></trkpt><trkpt lat="43.134523" lon="12.4468136"><ele>197.00000000000003</ele><time>2026-04-22T17:09:43.989Z</time></trkpt><trkpt lat="43.1344416" lon="12.4467235"><ele>197.0</ele><time>2026-04-22T17:09:45.969Z</time></trkpt><trkpt lat="43.1343762" lon="12.4466543"><ele>197.0</ele><time>2026-04-22T17:09:47.947Z</time></trkpt><trkpt lat="43.1343116" lon="12.4466543"><ele>197.0</ele><time>2026-04-22T17:09:49.944Z</time></trkpt><trkpt lat="43.1342823" lon="12.446752"><ele>197.00000000000003</ele><time>2026-04-22T17:09:52.963Z</time></trkpt><trkpt lat="43.1342256" lon="12.4468683"><ele>197.0</ele><time>2026-04-22T17:09:54.966Z</time></trkpt><trkpt lat="43.134206" lon="12.4469541"><ele>197.0</ele><time>2026-04-22T17:09:55.972Z</time></trkpt><trkpt lat="43.1341942" lon="12.4470508"><ele>197.0</ele><time>2026-04-22T17:09:56.971Z</time></trkpt><trkpt lat="43.1342415" lon="12.4472056"><ele>197.0</ele><time>2026-04-22T17:09:58.966Z</time></trkpt><trkpt lat="43.1343261" lon="12.4473397"><ele>197.0</ele><time>2026-04-22T17:10:00.965Z</time></trkpt><trkpt lat="43.1343967" lon="12.4474612"><ele>197.0</ele><time>2026-04-22T17:10:02.948Z</time></trkpt><trkpt lat="43.1344454" lon="12.4475703"><ele>197.0</ele><time>2026-04-22T17:10:04.965Z</time></trkpt><trkpt lat="43.1344642" lon="12.4476548"><ele>197.0</ele><time>2026-04-22T17:10:05.99Z</time></trkpt><trkpt lat="43.1345058" lon="12.4478228"><ele>197.0</ele><time>2026-04-22T17:10:07.977Z</time></trkpt><trkpt lat="43.1345841" lon="12.447944"><ele>197.0</ele><time>2026-04-22T17:10:09.962Z</time></trkpt><trkpt lat="43.1346676" lon="12.4480505"><ele>197.0</ele><time>2026-04-22T17:10:11.974Z</time></trkpt><trkpt lat="43.1347417" lon="12.4481657"><ele>196.6</ele><time>2026-04-22T17:10:13.967Z</time></trkpt><trkpt lat="43.1348111" lon="12.4482832"><ele>196.2</ele><time>2026-04-22T17:10:15.956Z</time></trkpt><trkpt lat="43.1348863" lon="12.4483954"><ele>195.8</ele><time>2026-04-22T17:10:17.96Z</time></trkpt><trkpt lat="43.1349583" lon="12.4484851"><ele>195.4</ele><time>2026-04-22T17:10:19.968Z</time></trkpt><trkpt lat="43.1350205" lon="12.4485899"><ele>195.0</ele><time>2026-04-22T17:10:22.005Z</time></trkpt><trkpt lat="43.1350991" lon="12.4486749"><ele>194.83333333333334</ele><time>2026-04-22T17:10:24.002Z</time></trkpt><trkpt lat="43.1351704" lon="12.4487517"><ele>194.66666666666669</ele><time>2026-04-22T17:10:25.957Z</time></trkpt><trkpt lat="43.135238" lon="12.448842"><ele>194.5</ele><time>2026-04-22T17:10:27.954Z</time></trkpt><trkpt lat="43.1353164" lon="12.4488988"><ele>194.33333333333334</ele><time>2026-04-22T17:10:30.003Z</time></trkpt><trkpt lat="43.1353876" lon="12.4488739"><ele>194.16666666666669</ele><time>2026-04-22T17:10:31.98Z</time></trkpt><trkpt lat="43.1354562" lon="12.4488156"><ele>194.0</ele><time>2026-04-22T17:10:35.106Z</time></trkpt><trkpt lat="43.1355077" lon="12.4487645"><ele>194.00000000000003</ele><time>2026-04-22T17:10:40.014Z</time></trkpt><trkpt lat="43.1355433" lon="12.4486769"><ele>194.0</ele><time>2026-04-22T17:10:43.012Z</time></trkpt><trkpt lat="43.1355909" lon="12.448588"><ele>194.0</ele><time>2026-04-22T17:10:44.973Z</time></trkpt><trkpt lat="43.1356639" lon="12.4485041"><ele>194.0</ele><time>2026-04-22T17:10:47.01Z</time></trkpt><trkpt lat="43.1357447" lon="12.4484419"><ele>194.00000000000003</ele><time>2026-04-22T17:10:48.979Z</time></trkpt><trkpt lat="43.1358121" lon="12.4483641"><ele>194.0</ele><time>2026-04-22T17:10:50.964Z</time></trkpt><trkpt lat="43.1358699" lon="12.4484029"><ele>194.2</ele><time>2026-04-22T17:10:55.953Z</time></trkpt><trkpt lat="43.1359301" lon="12.4485092"><ele>194.39999999999998</ele><time>2026-04-22T17:10:58.982Z</time></trkpt><trkpt lat="43.1359836" lon="12.4486306"><ele>194.6</ele><time>2026-04-22T17:11:00.995Z</time></trkpt><trkpt lat="43.1360395" lon="12.4487609"><ele>194.8</ele><time>2026-04-22T17:11:03.001Z</time></trkpt><trkpt lat="43.1360905" lon="12.4488842"><ele>195.0</ele><time>2026-04-22T17:11:04.983Z</time></trkpt><trkpt lat="43.1361386" lon="12.4490015"><ele>195.0</ele><time>2026-04-22T17:11:06.962Z</time></trkpt><trkpt lat="43.1361752" lon="12.4491179"><ele>195.0</ele><time>2026-04-22T17:11:08.954Z</time></trkpt><trkpt lat="43.1362257" lon="12.4492378"><ele>195.0</ele><time>2026-04-22T17:11:10.96Z</time></trkpt><trkpt lat="43.1362784" lon="12.449362"><ele>195.0</ele><time>2026-04-22T17:11:13.008Z</time></trkpt><trkpt lat="43.1363424" lon="12.449529"><ele>195.0</ele><time>2026-04-22T17:11:15.968Z</time></trkpt><trkpt lat="43.1363915" lon="12.4496452"><ele>195.2</ele><time>2026-04-22T17:11:17.955Z</time></trkpt><trkpt lat="43.1364447" lon="12.4497579"><ele>195.4</ele><time>2026-04-22T17:11:19.935Z</time></trkpt><trkpt lat="43.1365032" lon="12.4498655"><ele>195.60000000000002</ele><time>2026-04-22T17:11:21.931Z</time></trkpt><trkpt lat="43.1365566" lon="12.449977"><ele>195.8</ele><time>2026-04-22T17:11:23.94Z</time></trkpt><trkpt lat="43.1366146" lon="12.4500832"><ele>196.0</ele><time>2026-04-22T17:11:25.985Z</time></trkpt><trkpt lat="43.1366635" lon="12.4501954"><ele>196.20000000000002</ele><time>2026-04-22T17:11:27.969Z</time></trkpt><trkpt lat="43.1367088" lon="12.4503274"><ele>196.4</ele><time>2026-04-22T17:11:30.036Z</time></trkpt><trkpt lat="43.1367568" lon="12.4504466"><ele>196.6</ele><time>2026-04-22T17:11:32.092Z</time></trkpt><trkpt lat="43.1368078" lon="12.4505531"><ele>196.8</ele><time>2026-04-22T17:11:33.992Z</time></trkpt><trkpt lat="43.1368776" lon="12.4507173"><ele>197.0</ele><time>2026-04-22T17:11:36.956Z</time></trkpt><trkpt lat="43.1369323" lon="12.4508154"><ele>197.0</ele><time>2026-04-22T17:11:38.973Z</time></trkpt><trkpt lat="43.1369918" lon="12.450907"><ele>197.0</ele><time>2026-04-22T17:11:41.021Z</time></trkpt><trkpt lat="43.1370774" lon="12.4509198"><ele>197.0</ele><time>2026-04-22T17:11:42.98Z</time></trkpt><trkpt lat="43.1371688" lon="12.4510127"><ele>197.0</ele><time>2026-04-22T17:11:45.932Z</time></trkpt><trkpt lat="43.1372122" lon="12.4511121"><ele>197.0</ele><time>2026-04-22T17:11:47.964Z</time></trkpt><trkpt lat="43.1372508" lon="12.4512168"><ele>196.66666666666669</ele><time>2026-04-22T17:11:49.987Z</time></trkpt><trkpt lat="43.1372983" lon="12.4513235"><ele>196.33333333333334</ele><time>2026-04-22T17:11:51.996Z</time></trkpt><trkpt lat="43.1373547" lon="12.4514236"><ele>196.0</ele><time>2026-04-22T17:11:53.974Z</time></trkpt><trkpt lat="43.1373983" lon="12.451529"><ele>195.66666666666669</ele><time>2026-04-22T17:11:55.969Z</time></trkpt><trkpt lat="43.1374455" lon="12.451641"><ele>195.33333333333334</ele><time>2026-04-22T17:11:57.964Z</time></trkpt><trkpt lat="43.1374829" lon="12.451741"><ele>195.0</ele><time>2026-04-22T17:11:59.963Z</time></trkpt><trkpt lat="43.1375291" lon="12.4518236"><ele>195.33333333333334</ele><time>2026-04-22T17:12:01.942Z</time></trkpt><trkpt lat="43.1375746" lon="12.4519201"><ele>195.66666666666669</ele><time>2026-04-22T17:12:04.997Z</time></trkpt><trkpt lat="43.1376264" lon="12.4519971"><ele>196.0</ele><time>2026-04-22T17:12:08.001Z</time></trkpt><trkpt lat="43.1376728" lon="12.4520776"><ele>196.33333333333334</ele><time>2026-04-22T17:12:11.97Z</time></trkpt><trkpt lat="43.1377296" lon="12.4521406"><ele>196.66666666666669</ele><time>2026-04-22T17:12:16.064Z</time></trkpt><trkpt lat="43.1376963" lon="12.4522365"><ele>197.0</ele><time>2026-04-22T17:12:18.979Z</time></trkpt><trkpt lat="43.1376687" lon="12.4523179"><ele>197.0</ele><time>2026-04-22T17:12:23.921Z</time></trkpt><trkpt lat="43.1376255" lon="12.4523995"><ele>197.0</ele><time>2026-04-22T17:12:27.988Z</time></trkpt><trkpt lat="43.1376499" lon="12.4523047"><ele>197.0</ele><time>2026-04-22T17:12:40.948Z</time></trkpt><trkpt lat="43.1376872" lon="12.4522241"><ele>197.0</ele><time>2026-04-22T17:12:43.983Z</time></trkpt><trkpt lat="43.1376835" lon="12.452119"><ele>197.0</ele><time>2026-04-22T17:12:47.016Z</time></trkpt><trkpt lat="43.1376277" lon="12.4520379"><ele>197.0</ele><time>2026-04-22T17:12:50.972Z</time></trkpt><trkpt lat="43.1375939" lon="12.4519613"><ele>197.0</ele><time>2026-04-22T17:12:52.957Z</time></trkpt><trkpt lat="43.1375372" lon="12.4518521"><ele>197.39999999999998</ele><time>2026-04-22T17:12:54.96Z</time></trkpt><trkpt lat="43.137479" lon="12.4517276"><ele>197.79999999999998</ele><time>2026-04-22T17:12:56.967Z</time></trkpt><trkpt lat="43.1374426" lon="12.4516546"><ele>198.2</ele><time>2026-04-22T17:12:57.976Z</time></trkpt><trkpt lat="43.1373822" lon="12.4515156"><ele>198.6</ele><time>2026-04-22T17:12:59.967Z</time></trkpt><trkpt lat="43.1373234" lon="12.4513816"><ele>199.0</ele><time>2026-04-22T17:13:01.954Z</time></trkpt><trkpt lat="43.1372832" lon="12.4513008"><ele>198.6</ele><time>2026-04-22T17:13:02.966Z</time></trkpt><trkpt lat="43.1372392" lon="12.4512172"><ele>198.2</ele><time>2026-04-22T17:13:03.989Z</time></trkpt><trkpt lat="43.1372018" lon="12.4511077"><ele>197.79999999999998</ele><time>2026-04-22T17:13:05.962Z</time></trkpt><trkpt lat="43.1371593" lon="12.4510039"><ele>197.39999999999998</ele><time>2026-04-22T17:13:07.958Z</time></trkpt><trkpt lat="43.1371" lon="12.4508947"><ele>197.0</ele><time>2026-04-22T17:13:09.959Z</time></trkpt><trkpt lat="43.1369969" lon="12.4508647"><ele>197.0</ele><time>2026-04-22T17:13:11.947Z</time></trkpt><trkpt lat="43.1369103" lon="12.4507756"><ele>197.0</ele><time>2026-04-22T17:13:13.943Z</time></trkpt><trkpt lat="43.1368475" lon="12.4506533"><ele>197.0</ele><time>2026-04-22T17:13:15.954Z</time></trkpt><trkpt lat="43.1367922" lon="12.450524"><ele>197.0</ele><time>2026-04-22T17:13:17.971Z</time></trkpt><trkpt lat="43.1367306" lon="12.4503949"><ele>197.0</ele><time>2026-04-22T17:13:19.917Z</time></trkpt><trkpt lat="43.1366743" lon="12.4502482"><ele>196.8</ele><time>2026-04-22T17:13:21.962Z</time></trkpt><trkpt lat="43.1366206" lon="12.4501025"><ele>196.6</ele><time>2026-04-22T17:13:24.074Z</time></trkpt><trkpt lat="43.1365655" lon="12.4499814"><ele>196.4</ele><time>2026-04-22T17:13:25.972Z</time></trkpt><trkpt lat="43.1365021" lon="12.4498618"><ele>196.20000000000002</ele><time>2026-04-22T17:13:27.978Z</time></trkpt><trkpt lat="43.1364374" lon="12.4497396"><ele>196.0</ele><time>2026-04-22T17:13:30.001Z</time></trkpt><trkpt lat="43.1363718" lon="12.4496094"><ele>195.8</ele><time>2026-04-22T17:13:31.962Z</time></trkpt><trkpt lat="43.1363148" lon="12.449471"><ele>195.60000000000002</ele><time>2026-04-22T17:13:33.965Z</time></trkpt><trkpt lat="43.1362818" lon="12.4493878"><ele>195.4</ele><time>2026-04-22T17:13:35.19Z</time></trkpt><trkpt lat="43.1362303" lon="12.4492652"><ele>195.2</ele><time>2026-04-22T17:13:36.961Z</time></trkpt><trkpt lat="43.1361771" lon="12.4491232"><ele>195.0</ele><time>2026-04-22T17:13:38.978Z</time></trkpt><trkpt lat="43.1361287" lon="12.448984"><ele>195.0</ele><time>2026-04-22T17:13:40.951Z</time></trkpt><trkpt lat="43.1360725" lon="12.4488423"><ele>195.0</ele><time>2026-04-22T17:13:42.979Z</time></trkpt><trkpt lat="43.1360354" lon="12.4487692"><ele>195.0</ele><time>2026-04-22T17:13:44.059Z</time></trkpt><trkpt lat="43.135976" lon="12.4486345"><ele>195.0</ele><time>2026-04-22T17:13:46.085Z</time></trkpt><trkpt lat="43.1358904" lon="12.4484661"><ele>195.0</ele><time>2026-04-22T17:13:48.967Z</time></trkpt><trkpt lat="43.1358493" lon="12.4483682"><ele>195.16666666666666</ele><time>2026-04-22T17:13:51.953Z</time></trkpt><trkpt lat="43.1357677" lon="12.4484291"><ele>195.33333333333331</ele><time>2026-04-22T17:13:54.971Z</time></trkpt><trkpt lat="43.1357082" lon="12.4484893"><ele>195.5</ele><time>2026-04-22T17:13:56.994Z</time></trkpt><trkpt lat="43.1356464" lon="12.4485557"><ele>195.66666666666666</ele><time>2026-04-22T17:13:58.974Z</time></trkpt><trkpt lat="43.1355803" lon="12.4486213"><ele>195.83333333333331</ele><time>2026-04-22T17:14:00.959Z</time></trkpt><trkpt lat="43.1355233" lon="12.4487132"><ele>196.0</ele><time>2026-04-22T17:14:02.979Z</time></trkpt><trkpt lat="43.1354512" lon="12.448807"><ele>195.60000000000002</ele><time>2026-04-22T17:14:04.945Z</time></trkpt><trkpt lat="43.1353608" lon="12.4488672"><ele>195.2</ele><time>2026-04-22T17:14:06.972Z</time></trkpt><trkpt lat="43.1352641" lon="12.4488859"><ele>194.8</ele><time>2026-04-22T17:14:08.981Z</time></trkpt><trkpt lat="43.1351843" lon="12.4487658"><ele>194.39999999999998</ele><time>2026-04-22T17:14:10.957Z</time></trkpt><trkpt lat="43.1350921" lon="12.4486565"><ele>194.0</ele><time>2026-04-22T17:14:12.961Z</time></trkpt><trkpt lat="43.1350411" lon="12.4485989"><ele>194.0</ele><time>2026-04-22T17:14:13.965Z</time></trkpt><trkpt lat="43.1349904" lon="12.4485436"><ele>194.0</ele><time>2026-04-22T17:14:14.943Z</time></trkpt><trkpt lat="43.1349053" lon="12.448427"><ele>194.0</ele><time>2026-04-22T17:14:16.957Z</time></trkpt><trkpt lat="43.1348149" lon="12.4483085"><ele>194.0</ele><time>2026-04-22T17:14:19.035Z</time></trkpt><trkpt lat="43.1347472" lon="12.4481736"><ele>194.0</ele><time>2026-04-22T17:14:21.037Z</time></trkpt><trkpt lat="43.1346815" lon="12.4480543"><ele>194.75</ele><time>2026-04-22T17:14:22.95Z</time></trkpt><trkpt lat="43.1345944" lon="12.4479415"><ele>195.5</ele><time>2026-04-22T17:14:24.969Z</time></trkpt><trkpt lat="43.1345041" lon="12.4478151"><ele>196.25</ele><time>2026-04-22T17:14:26.994Z</time></trkpt><trkpt lat="43.1344371" lon="12.4476902"><ele>197.0</ele><time>2026-04-22T17:14:29Z</time></trkpt><trkpt lat="43.1344213" lon="12.4475331"><ele>197.00000000000003</ele><time>2026-04-22T17:14:31.002Z</time></trkpt><trkpt lat="43.1344046" lon="12.4474029"><ele>197.0</ele><time>2026-04-22T17:14:33.025Z</time></trkpt><trkpt lat="43.1344111" lon="12.4472828"><ele>197.0</ele><time>2026-04-22T17:14:35.106Z</time></trkpt><trkpt lat="43.1344019" lon="12.4471913"><ele>197.0</ele><time>2026-04-22T17:14:37.098Z</time></trkpt><trkpt lat="43.1343641" lon="12.4471134"><ele>197.00000000000003</ele><time>2026-04-22T17:14:38.981Z</time></trkpt><trkpt lat="43.1342946" lon="12.4470983"><ele>197.0</ele><time>2026-04-22T17:14:40.983Z</time></trkpt><trkpt lat="43.1342263" lon="12.447134"><ele>197.00000000000003</ele><time>2026-04-22T17:14:42.985Z</time></trkpt><trkpt lat="43.1341577" lon="12.4471699"><ele>197.0</ele><time>2026-04-22T17:14:44.988Z</time></trkpt><trkpt lat="43.1340844" lon="12.4472052"><ele>197.0</ele><time>2026-04-22T17:14:47.044Z</time></trkpt><trkpt lat="43.1340031" lon="12.4472339"><ele>197.0</ele><time>2026-04-22T17:14:48.981Z</time></trkpt><trkpt lat="43.1339413" lon="12.4472639"><ele>197.00000000000003</ele><time>2026-04-22T17:14:50.993Z</time></trkpt><trkpt lat="43.1338787" lon="12.4472869"><ele>197.0</ele><time>2026-04-22T17:14:53.05Z</time></trkpt><trkpt lat="43.1337985" lon="12.4473315"><ele>196.6</ele><time>2026-04-22T17:14:56.127Z</time></trkpt><trkpt lat="43.13371" lon="12.4473676"><ele>196.2</ele><time>2026-04-22T17:14:59.061Z</time></trkpt><trkpt lat="43.1336469" lon="12.447417"><ele>195.8</ele><time>2026-04-22T17:15:00.974Z</time></trkpt><trkpt lat="43.1335549" lon="12.4474503"><ele>195.4</ele><time>2026-04-22T17:15:03.104Z</time></trkpt><trkpt lat="43.1334594" lon="12.4475"><ele>195.0</ele><time>2026-04-22T17:15:04.98Z</time></trkpt><trkpt lat="43.1333484" lon="12.4474409"><ele>195.0</ele><time>2026-04-22T17:15:06.996Z</time></trkpt><trkpt lat="43.1333335" lon="12.4473482"><ele>195.0</ele><time>2026-04-22T17:15:07.978Z</time></trkpt><trkpt lat="43.1333431" lon="12.4472327"><ele>195.0</ele><time>2026-04-22T17:15:09.138Z</time></trkpt><trkpt lat="43.1333344" lon="12.4470364"><ele>195.0</ele><time>2026-04-22T17:15:10.991Z</time></trkpt><trkpt lat="43.1333165" lon="12.4469303"><ele>195.0</ele><time>2026-04-22T17:15:11.96Z</time></trkpt><trkpt lat="43.133287" lon="12.4468223"><ele>195.5</ele><time>2026-04-22T17:15:12.959Z</time></trkpt><trkpt lat="43.1332638" lon="12.4467046"><ele>196.0</ele><time>2026-04-22T17:15:13.953Z</time></trkpt><trkpt lat="43.1332368" lon="12.4465897"><ele>196.5</ele><time>2026-04-22T17:15:14.967Z</time></trkpt><trkpt lat="43.1332159" lon="12.4464845"><ele>197.0</ele><time>2026-04-22T17:15:15.987Z</time></trkpt><trkpt lat="43.1331969" lon="12.4463872"><ele>197.5</ele><time>2026-04-22T17:15:16.959Z</time></trkpt><trkpt lat="43.1331807" lon="12.4462868"><ele>198.0</ele><time>2026-04-22T17:15:17.966Z</time></trkpt><trkpt lat="43.133163" lon="12.4461883"><ele>198.2857142857143</ele><time>2026-04-22T17:15:18.957Z</time></trkpt><trkpt lat="43.1331483" lon="12.4460867"><ele>198.57142857142856</ele><time>2026-04-22T17:15:19.999Z</time></trkpt><trkpt lat="43.1331362" lon="12.4459877"><ele>198.85714285714286</ele><time>2026-04-22T17:15:21.048Z</time></trkpt><trkpt lat="43.1331432" lon="12.4458961"><ele>199.14285714285717</ele><time>2026-04-22T17:15:21.983Z</time></trkpt><trkpt lat="43.1331502" lon="12.4458069"><ele>199.42857142857144</ele><time>2026-04-22T17:15:22.955Z</time></trkpt><trkpt lat="43.133161" lon="12.4457097"><ele>199.71428571428572</ele><time>2026-04-22T17:15:23.988Z</time></trkpt><trkpt lat="43.1331779" lon="12.4456171"><ele>200.0</ele><time>2026-04-22T17:15:24.984Z</time></trkpt><trkpt lat="43.1331875" lon="12.4455275"><ele>199.8</ele><time>2026-04-22T17:15:25.968Z</time></trkpt><trkpt lat="43.1332123" lon="12.4453587"><ele>199.6</ele><time>2026-04-22T17:15:27.946Z</time></trkpt><trkpt lat="43.1332189" lon="12.4452638"><ele>199.39999999999998</ele><time>2026-04-22T17:15:28.962Z</time></trkpt><trkpt lat="43.1332448" lon="12.4450966"><ele>199.2</ele><time>2026-04-22T17:15:30.955Z</time></trkpt><trkpt lat="43.1332698" lon="12.4449248"><ele>199.0</ele><time>2026-04-22T17:15:32.999Z</time></trkpt><trkpt lat="43.1333028" lon="12.4447571"><ele>198.79999999999998</ele><time>2026-04-22T17:15:34.97Z</time></trkpt><trkpt lat="43.1333153" lon="12.4446711"><ele>198.6</ele><time>2026-04-22T17:15:35.997Z</time></trkpt><trkpt lat="43.1333499" lon="12.4445143"><ele>198.4</ele><time>2026-04-22T17:15:37.972Z</time></trkpt><trkpt lat="43.1333863" lon="12.4443694"><ele>198.2</ele><time>2026-04-22T17:15:39.969Z</time></trkpt><trkpt lat="43.1334292" lon="12.4442227"><ele>198.0</ele><time>2026-04-22T17:15:41.943Z</time></trkpt><trkpt lat="43.1334602" lon="12.4440702"><ele>198.0</ele><time>2026-04-22T17:15:43.947Z</time></trkpt><trkpt lat="43.1334804" lon="12.4439084"><ele>198.0</ele><time>2026-04-22T17:15:45.971Z</time></trkpt><trkpt lat="43.1334865" lon="12.4437408"><ele>198.0</ele><time>2026-04-22T17:15:47.992Z</time></trkpt><trkpt lat="43.1334755" lon="12.4435811"><ele>198.0</ele><time>2026-04-22T17:15:49.973Z</time></trkpt><trkpt lat="43.1334546" lon="12.443435"><ele>198.4</ele><time>2026-04-22T17:15:51.975Z</time></trkpt><trkpt lat="43.1334301" lon="12.4432959"><ele>198.8</ele><time>2026-04-22T17:15:53.947Z</time></trkpt><trkpt lat="43.133414" lon="12.4431761"><ele>199.2</ele><time>2026-04-22T17:15:55.989Z</time></trkpt><trkpt lat="43.1333826" lon="12.4430466"><ele>199.6</ele><time>2026-04-22T17:15:57.97Z</time></trkpt><trkpt lat="43.133326" lon="12.4429435"><ele>200.0</ele><time>2026-04-22T17:15:59.982Z</time></trkpt><trkpt lat="43.1332443" lon="12.4428913"><ele>200.00000000000003</ele><time>2026-04-22T17:16:01.993Z</time></trkpt><trkpt lat="43.1331574" lon="12.442898"><ele>200.0</ele><time>2026-04-22T17:16:04.144Z</time></trkpt><trkpt lat="43.133091" lon="12.4429146"><ele>200.0</ele><time>2026-04-22T17:16:05.96Z</time></trkpt><trkpt lat="43.1330117" lon="12.4428974"><ele>200.0</ele><time>2026-04-22T17:16:08.003Z</time></trkpt><trkpt lat="43.132945" lon="12.4428427"><ele>200.00000000000003</ele><time>2026-04-22T17:16:09.968Z</time></trkpt><trkpt lat="43.132891" lon="12.44274"><ele>200.0</ele><time>2026-04-22T17:16:12.991Z</time></trkpt><trkpt lat="43.1328355" lon="12.4426239"><ele>200.0</ele><time>2026-04-22T17:16:14.988Z</time></trkpt><trkpt lat="43.1327719" lon="12.4425105"><ele>200.0</ele><time>2026-04-22T17:16:17.178Z</time></trkpt><trkpt lat="43.1327013" lon="12.4424271"><ele>200.0</ele><time>2026-04-22T17:16:18.963Z</time></trkpt><trkpt lat="43.1326424" lon="12.4423476"><ele>200.0</ele><time>2026-04-22T17:16:20.953Z</time></trkpt><trkpt lat="43.1325758" lon="12.4422652"><ele>200.0</ele><time>2026-04-22T17:16:22.972Z</time></trkpt><trkpt lat="43.1325137" lon="12.4421573"><ele>200.0</ele><time>2026-04-22T17:16:24.979Z</time></trkpt><trkpt lat="43.1324582" lon="12.442036"><ele>200.0</ele><time>2026-04-22T17:16:26.976Z</time></trkpt><trkpt lat="43.1324026" lon="12.4419303"><ele>200.0</ele><time>2026-04-22T17:16:28.997Z</time></trkpt><trkpt lat="43.132336" lon="12.4418236"><ele>200.0</ele><time>2026-04-22T17:16:31.091Z</time></trkpt><trkpt lat="43.1322794" lon="12.4417199"><ele>200.0</ele><time>2026-04-22T17:16:32.956Z</time></trkpt><trkpt lat="43.1322241" lon="12.4416094"><ele>200.0</ele><time>2026-04-22T17:16:34.961Z</time></trkpt><trkpt lat="43.132159" lon="12.4414872"><ele>200.0</ele><time>2026-04-22T17:16:36.969Z</time></trkpt><trkpt lat="43.1320924" lon="12.4413457"><ele>200.0</ele><time>2026-04-22T17:16:38.982Z</time></trkpt><trkpt lat="43.1320305" lon="12.4412401"><ele>200.0</ele><time>2026-04-22T17:16:41.079Z</time></trkpt><trkpt lat="43.1319715" lon="12.4411425"><ele>200.0</ele><time>2026-04-22T17:16:42.966Z</time></trkpt><trkpt lat="43.1319097" lon="12.4410432"><ele>200.0</ele><time>2026-04-22T17:16:44.966Z</time></trkpt><trkpt lat="43.1318532" lon="12.4409395"><ele>200.0</ele><time>2026-04-22T17:16:46.97Z</time></trkpt><trkpt lat="43.1317973" lon="12.4408469"><ele>200.0</ele><time>2026-04-22T17:16:48.985Z</time></trkpt><trkpt lat="43.1317338" lon="12.4407277"><ele>200.0</ele><time>2026-04-22T17:16:50.981Z</time></trkpt><trkpt lat="43.1316614" lon="12.4406186"><ele>200.0</ele><time>2026-04-22T17:16:53.002Z</time></trkpt><trkpt lat="43.1315885" lon="12.4405282"><ele>200.0</ele><time>2026-04-22T17:16:54.969Z</time></trkpt><trkpt lat="43.1315042" lon="12.440425"><ele>200.0</ele><time>2026-04-22T17:16:56.97Z</time></trkpt><trkpt lat="43.1314191" lon="12.4403065"><ele>200.0</ele><time>2026-04-22T17:16:58.932Z</time></trkpt><trkpt lat="43.1313747" lon="12.4402377"><ele>200.0</ele><time>2026-04-22T17:16:59.981Z</time></trkpt><trkpt lat="43.1313027" lon="12.4401086"><ele>200.0</ele><time>2026-04-22T17:17:01.958Z</time></trkpt><trkpt lat="43.1312233" lon="12.4399884"><ele>200.0</ele><time>2026-04-22T17:17:03.99Z</time></trkpt><trkpt lat="43.1311527" lon="12.4398633"><ele>200.0</ele><time>2026-04-22T17:17:05.99Z</time></trkpt><trkpt lat="43.1310764" lon="12.4397361"><ele>200.0</ele><time>2026-04-22T17:17:07.995Z</time></trkpt><trkpt lat="43.1309983" lon="12.4396201"><ele>200.0</ele><time>2026-04-22T17:17:09.962Z</time></trkpt><trkpt lat="43.1309316" lon="12.4394872"><ele>199.5</ele><time>2026-04-22T17:17:11.973Z</time></trkpt><trkpt lat="43.1308731" lon="12.4393452"><ele>199.0</ele><time>2026-04-22T17:17:13.964Z</time></trkpt><trkpt lat="43.13081" lon="12.439213"><ele>198.5</ele><time>2026-04-22T17:17:15.944Z</time></trkpt><trkpt lat="43.1307483" lon="12.4390772"><ele>198.0</ele><time>2026-04-22T17:17:17.978Z</time></trkpt><trkpt lat="43.1306825" lon="12.4389557"><ele>198.0</ele><time>2026-04-22T17:17:20.007Z</time></trkpt><trkpt lat="43.1306123" lon="12.4388347"><ele>198.0</ele><time>2026-04-22T17:17:21.968Z</time></trkpt><trkpt lat="43.1305457" lon="12.4387047"><ele>198.0</ele><time>2026-04-22T17:17:23.979Z</time></trkpt><trkpt lat="43.130479" lon="12.4385787"><ele>198.0</ele><time>2026-04-22T17:17:25.974Z</time></trkpt><trkpt lat="43.1304251" lon="12.4384374"><ele>198.0</ele><time>2026-04-22T17:17:27.97Z</time></trkpt><trkpt lat="43.130359" lon="12.4382997"><ele>198.0</ele><time>2026-04-22T17:17:30.02Z</time></trkpt><trkpt lat="43.1302688" lon="12.4381748"><ele>198.0</ele><time>2026-04-22T17:17:32.102Z</time></trkpt><trkpt lat="43.130176" lon="12.4380614"><ele>198.0</ele><time>2026-04-22T17:17:34.014Z</time></trkpt><trkpt lat="43.1301282" lon="12.4380025"><ele>198.0</ele><time>2026-04-22T17:17:34.979Z</time></trkpt><trkpt lat="43.1300357" lon="12.4378833"><ele>198.0</ele><time>2026-04-22T17:17:37.002Z</time></trkpt><trkpt lat="43.1299451" lon="12.4377691"><ele>198.0</ele><time>2026-04-22T17:17:38.962Z</time></trkpt><trkpt lat="43.1298943" lon="12.4377"><ele>198.0</ele><time>2026-04-22T17:17:40.085Z</time></trkpt><trkpt lat="43.1298012" lon="12.4375925"><ele>198.0</ele><time>2026-04-22T17:17:41.99Z</time></trkpt><trkpt lat="43.1297533" lon="12.4375358"><ele>198.0</ele><time>2026-04-22T17:17:42.991Z</time></trkpt><trkpt lat="43.129653" lon="12.4374229"><ele>197.60000000000002</ele><time>2026-04-22T17:17:45.048Z</time></trkpt><trkpt lat="43.1295662" lon="12.4373282"><ele>197.20000000000002</ele><time>2026-04-22T17:17:46.985Z</time></trkpt><trkpt lat="43.1294651" lon="12.4372435"><ele>196.8</ele><time>2026-04-22T17:17:48.985Z</time></trkpt><trkpt lat="43.1293775" lon="12.4371442"><ele>196.4</ele><time>2026-04-22T17:17:51.032Z</time></trkpt><trkpt lat="43.1292947" lon="12.4370772"><ele>196.0</ele><time>2026-04-22T17:17:52.973Z</time></trkpt><trkpt lat="43.1292086" lon="12.4370081"><ele>196.0</ele><time>2026-04-22T17:17:55.017Z</time></trkpt><trkpt lat="43.1291243" lon="12.4369269"><ele>196.0</ele><time>2026-04-22T17:17:56.968Z</time></trkpt><trkpt lat="43.1290229" lon="12.4368598"><ele>196.0</ele><time>2026-04-22T17:17:59.04Z</time></trkpt><trkpt lat="43.128938" lon="12.4367876"><ele>196.0</ele><time>2026-04-22T17:18:00.99Z</time></trkpt><trkpt lat="43.1288435" lon="12.4367129"><ele>196.0</ele><time>2026-04-22T17:18:03.083Z</time></trkpt><trkpt lat="43.12876" lon="12.4366468"><ele>196.0</ele><time>2026-04-22T17:18:04.982Z</time></trkpt><trkpt lat="43.1286769" lon="12.4365835"><ele>196.0</ele><time>2026-04-22T17:18:06.983Z</time></trkpt><trkpt lat="43.1285891" lon="12.4365119"><ele>196.0</ele><time>2026-04-22T17:18:09.062Z</time></trkpt><trkpt lat="43.1285123" lon="12.4364454"><ele>196.0</ele><time>2026-04-22T17:18:10.948Z</time></trkpt><trkpt lat="43.1284223" lon="12.4363683"><ele>196.0</ele><time>2026-04-22T17:18:12.999Z</time></trkpt><trkpt lat="43.1283398" lon="12.4363014"><ele>196.0</ele><time>2026-04-22T17:18:14.99Z</time></trkpt><trkpt lat="43.1282478" lon="12.4362391"><ele>196.0</ele><time>2026-04-22T17:18:16.961Z</time></trkpt><trkpt lat="43.1281442" lon="12.4361789"><ele>196.0</ele><time>2026-04-22T17:18:18.99Z</time></trkpt><trkpt lat="43.1280435" lon="12.4361107"><ele>196.0</ele><time>2026-04-22T17:18:20.977Z</time></trkpt><trkpt lat="43.1279477" lon="12.4360386"><ele>196.0</ele><time>2026-04-22T17:18:22.984Z</time></trkpt><trkpt lat="43.1278483" lon="12.4359551"><ele>196.25</ele><time>2026-04-22T17:18:25.003Z</time></trkpt><trkpt lat="43.1277591" lon="12.4358707"><ele>196.5</ele><time>2026-04-22T17:18:26.983Z</time></trkpt><trkpt lat="43.127659" lon="12.4357793"><ele>196.75</ele><time>2026-04-22T17:18:29.118Z</time></trkpt><trkpt lat="43.1275679" lon="12.4356966"><ele>197.0</ele><time>2026-04-22T17:18:30.981Z</time></trkpt><trkpt lat="43.1274699" lon="12.435616"><ele>196.75</ele><time>2026-04-22T17:18:32.986Z</time></trkpt><trkpt lat="43.1273827" lon="12.4355077"><ele>196.5</ele><time>2026-04-22T17:18:34.98Z</time></trkpt><trkpt lat="43.1272728" lon="12.435423"><ele>196.25</ele><time>2026-04-22T17:18:37.036Z</time></trkpt><trkpt lat="43.1271611" lon="12.4353703"><ele>196.0</ele><time>2026-04-22T17:18:39.038Z</time></trkpt><trkpt lat="43.1270469" lon="12.4353139"><ele>195.60000000000002</ele><time>2026-04-22T17:18:40.993Z</time></trkpt><trkpt lat="43.1269318" lon="12.4352557"><ele>195.2</ele><time>2026-04-22T17:18:42.968Z</time></trkpt><trkpt lat="43.1268712" lon="12.4352167"><ele>194.8</ele><time>2026-04-22T17:18:43.968Z</time></trkpt><trkpt lat="43.1267644" lon="12.4351175"><ele>194.39999999999998</ele><time>2026-04-22T17:18:45.97Z</time></trkpt><trkpt lat="43.1266993" lon="12.4350866"><ele>194.0</ele><time>2026-04-22T17:18:46.973Z</time></trkpt><trkpt lat="43.1265823" lon="12.4350978"><ele>194.79999999999998</ele><time>2026-04-22T17:18:48.99Z</time></trkpt><trkpt lat="43.1264844" lon="12.4351725"><ele>195.6</ele><time>2026-04-22T17:18:51.008Z</time></trkpt><trkpt lat="43.1264325" lon="12.4352857"><ele>196.4</ele><time>2026-04-22T17:18:52.986Z</time></trkpt><trkpt lat="43.1263429" lon="12.4353071"><ele>197.2</ele><time>2026-04-22T17:18:54.953Z</time></trkpt><trkpt lat="43.1262515" lon="12.4352466"><ele>198.0</ele><time>2026-04-22T17:18:56.966Z</time></trkpt><trkpt lat="43.1261551" lon="12.4352533"><ele>198.0</ele><time>2026-04-22T17:18:58.987Z</time></trkpt><trkpt lat="43.1260488" lon="12.435288"><ele>198.0</ele><time>2026-04-22T17:19:00.973Z</time></trkpt><trkpt lat="43.1259349" lon="12.4353077"><ele>198.0</ele><time>2026-04-22T17:19:03.004Z</time></trkpt><trkpt lat="43.1258237" lon="12.4353077"><ele>198.0</ele><time>2026-04-22T17:19:04.973Z</time></trkpt><trkpt lat="43.1257093" lon="12.4353242"><ele>198.0</ele><time>2026-04-22T17:19:07.088Z</time></trkpt><trkpt lat="43.1255982" lon="12.4353771"><ele>198.0</ele><time>2026-04-22T17:19:08.972Z</time></trkpt><trkpt lat="43.1255138" lon="12.4354645"><ele>198.0</ele><time>2026-04-22T17:19:11.015Z</time></trkpt><trkpt lat="43.1254626" lon="12.4355926"><ele>198.0</ele><time>2026-04-22T17:19:12.968Z</time></trkpt><trkpt lat="43.1253657" lon="12.4356759"><ele>198.0</ele><time>2026-04-22T17:19:14.972Z</time></trkpt><trkpt lat="43.1252499" lon="12.4357152"><ele>197.75</ele><time>2026-04-22T17:19:16.997Z</time></trkpt><trkpt lat="43.125133" lon="12.4357228"><ele>197.5</ele><time>2026-04-22T17:19:18.988Z</time></trkpt><trkpt lat="43.125016" lon="12.4357279"><ele>197.25</ele><time>2026-04-22T17:19:20.983Z</time></trkpt><trkpt lat="43.124899" lon="12.4357468"><ele>197.0</ele><time>2026-04-22T17:19:23.009Z</time></trkpt><trkpt lat="43.1247888" lon="12.435758"><ele>196.5</ele><time>2026-04-22T17:19:25.002Z</time></trkpt><trkpt lat="43.1246793" lon="12.4357754"><ele>196.0</ele><time>2026-04-22T17:19:26.997Z</time></trkpt><trkpt lat="43.1245658" lon="12.4357857"><ele>195.5</ele><time>2026-04-22T17:19:29.012Z</time></trkpt><trkpt lat="43.124452" lon="12.4357979"><ele>195.0</ele><time>2026-04-22T17:19:30.994Z</time></trkpt><trkpt lat="43.1243402" lon="12.4358144"><ele>195.0</ele><time>2026-04-22T17:19:32.999Z</time></trkpt><trkpt lat="43.1242318" lon="12.4358309"><ele>195.0</ele><time>2026-04-22T17:19:34.981Z</time></trkpt><trkpt lat="43.1241506" lon="12.4358153"><ele>195.0</ele><time>2026-04-22T17:19:36.961Z</time></trkpt><trkpt lat="43.1241327" lon="12.4356916"><ele>195.0</ele><time>2026-04-22T17:19:39.003Z</time></trkpt><trkpt lat="43.1241549" lon="12.4355558"><ele>195.0</ele><time>2026-04-22T17:19:40.972Z</time></trkpt><trkpt lat="43.124177" lon="12.4354183"><ele>194.6</ele><time>2026-04-22T17:19:42.995Z</time></trkpt><trkpt lat="43.1242006" lon="12.4352723"><ele>194.2</ele><time>2026-04-22T17:19:45.026Z</time></trkpt><trkpt lat="43.1242298" lon="12.4351398"><ele>193.8</ele><time>2026-04-22T17:19:46.963Z</time></trkpt><trkpt lat="43.1242666" lon="12.4350157"><ele>193.4</ele><time>2026-04-22T17:19:48.974Z</time></trkpt><trkpt lat="43.1242576" lon="12.4348812"><ele>193.0</ele><time>2026-04-22T17:19:50.98Z</time></trkpt><trkpt lat="43.1241714" lon="12.4347919"><ele>193.0</ele><time>2026-04-22T17:19:53.03Z</time></trkpt><trkpt lat="43.1240645" lon="12.4347545"><ele>193.0</ele><time>2026-04-22T17:19:55.006Z</time></trkpt><trkpt lat="43.1239478" lon="12.4347661"><ele>193.0</ele><time>2026-04-22T17:19:56.998Z</time></trkpt><trkpt lat="43.1238354" lon="12.4347931"><ele>193.0</ele><time>2026-04-22T17:19:58.982Z</time></trkpt><trkpt lat="43.1237727" lon="12.4348189"><ele>193.0</ele><time>2026-04-22T17:19:59.984Z</time></trkpt><trkpt lat="43.1236709" lon="12.4348658"><ele>193.0</ele><time>2026-04-22T17:20:01.974Z</time></trkpt><trkpt lat="43.1236094" lon="12.4348877"><ele>193.0</ele><time>2026-04-22T17:20:02.983Z</time></trkpt><trkpt lat="43.123507" lon="12.4349373"><ele>193.0</ele><time>2026-04-22T17:20:05.01Z</time></trkpt><trkpt lat="43.1234103" lon="12.4349712"><ele>193.0</ele><time>2026-04-22T17:20:06.97Z</time></trkpt><trkpt lat="43.1233077" lon="12.4350061"><ele>193.0</ele><time>2026-04-22T17:20:09.037Z</time></trkpt><trkpt lat="43.1232049" lon="12.43505"><ele>193.0</ele><time>2026-04-22T17:20:10.994Z</time></trkpt><trkpt lat="43.1231057" lon="12.4350889"><ele>193.0</ele><time>2026-04-22T17:20:12.942Z</time></trkpt><trkpt lat="43.1230002" lon="12.4351359"><ele>193.0</ele><time>2026-04-22T17:20:14.978Z</time></trkpt><trkpt lat="43.1228985" lon="12.43518"><ele>193.0</ele><time>2026-04-22T17:20:16.964Z</time></trkpt><trkpt lat="43.1228389" lon="12.4352142"><ele>193.0</ele><time>2026-04-22T17:20:18.022Z</time></trkpt><trkpt lat="43.1227344" lon="12.4352708"><ele>193.0</ele><time>2026-04-22T17:20:19.974Z</time></trkpt><trkpt lat="43.1226291" lon="12.435335"><ele>193.0</ele><time>2026-04-22T17:20:22.019Z</time></trkpt><trkpt lat="43.1225175" lon="12.435369"><ele>193.0</ele><time>2026-04-22T17:20:24.03Z</time></trkpt><trkpt lat="43.1224059" lon="12.4353984"><ele>193.0</ele><time>2026-04-22T17:20:26.003Z</time></trkpt><trkpt lat="43.1222955" lon="12.4354312"><ele>193.0</ele><time>2026-04-22T17:20:27.977Z</time></trkpt><trkpt lat="43.1221831" lon="12.4354666"><ele>193.0</ele><time>2026-04-22T17:20:29.995Z</time></trkpt><trkpt lat="43.1220749" lon="12.4354935"><ele>193.0</ele><time>2026-04-22T17:20:31.953Z</time></trkpt><trkpt lat="43.121961" lon="12.4355204"><ele>193.0</ele><time>2026-04-22T17:20:33.978Z</time></trkpt><trkpt lat="43.1218986" lon="12.4355387"><ele>193.0</ele><time>2026-04-22T17:20:35.02Z</time></trkpt><trkpt lat="43.1217866" lon="12.4355632"><ele>193.0</ele><time>2026-04-22T17:20:37.024Z</time></trkpt><trkpt lat="43.1216878" lon="12.4356093"><ele>193.0</ele><time>2026-04-22T17:20:38.963Z</time></trkpt><trkpt lat="43.1215777" lon="12.4356473"><ele>193.0</ele><time>2026-04-22T17:20:41.012Z</time></trkpt><trkpt lat="43.1214688" lon="12.435661"><ele>193.0</ele><time>2026-04-22T17:20:42.991Z</time></trkpt><trkpt lat="43.1213561" lon="12.435671"><ele>193.0</ele><time>2026-04-22T17:20:44.973Z</time></trkpt><trkpt lat="43.1212901" lon="12.4356604"><ele>192.8</ele><time>2026-04-22T17:20:46.089Z</time></trkpt><trkpt lat="43.121185" lon="12.435633"><ele>192.60000000000002</ele><time>2026-04-22T17:20:47.998Z</time></trkpt><trkpt lat="43.1210734" lon="12.4355967"><ele>192.39999999999998</ele><time>2026-04-22T17:20:50.009Z</time></trkpt><trkpt lat="43.120961" lon="12.4355698"><ele>192.2</ele><time>2026-04-22T17:20:52.012Z</time></trkpt><trkpt lat="43.1208528" lon="12.435538"><ele>192.0</ele><time>2026-04-22T17:20:53.975Z</time></trkpt><trkpt lat="43.1207338" lon="12.435492"><ele>192.2</ele><time>2026-04-22T17:20:55.998Z</time></trkpt><trkpt lat="43.1206286" lon="12.4354514"><ele>192.39999999999998</ele><time>2026-04-22T17:20:57.975Z</time></trkpt><trkpt lat="43.1205624" lon="12.435427"><ele>192.60000000000002</ele><time>2026-04-22T17:20:59.115Z</time></trkpt><trkpt lat="43.120466" lon="12.435372"><ele>192.8</ele><time>2026-04-22T17:21:00.998Z</time></trkpt><trkpt lat="43.1203529" lon="12.4353276"><ele>193.0</ele><time>2026-04-22T17:21:03.089Z</time></trkpt><trkpt lat="43.1202481" lon="12.4353384"><ele>193.0</ele><time>2026-04-22T17:21:04.969Z</time></trkpt><trkpt lat="43.1201379" lon="12.4353948"><ele>193.0</ele><time>2026-04-22T17:21:06.969Z</time></trkpt><trkpt lat="43.1200345" lon="12.4354617"><ele>193.0</ele><time>2026-04-22T17:21:08.993Z</time></trkpt><trkpt lat="43.119927" lon="12.435495"><ele>193.0</ele><time>2026-04-22T17:21:11.016Z</time></trkpt><trkpt lat="43.1198191" lon="12.4355115"><ele>193.0</ele><time>2026-04-22T17:21:12.978Z</time></trkpt><trkpt lat="43.1197085" lon="12.4355418"><ele>193.0</ele><time>2026-04-22T17:21:14.995Z</time></trkpt><trkpt lat="43.1195982" lon="12.4355593"><ele>193.0</ele><time>2026-04-22T17:21:17.027Z</time></trkpt><trkpt lat="43.1195035" lon="12.4355094"><ele>193.0</ele><time>2026-04-22T17:21:18.961Z</time></trkpt><trkpt lat="43.1193981" lon="12.4354781"><ele>193.0</ele><time>2026-04-22T17:21:21.004Z</time></trkpt><trkpt lat="43.1192919" lon="12.4355023"><ele>193.0</ele><time>2026-04-22T17:21:22.998Z</time></trkpt><trkpt lat="43.119184" lon="12.4355261"><ele>193.0</ele><time>2026-04-22T17:21:25.01Z</time></trkpt><trkpt lat="43.1190777" lon="12.4355617"><ele>193.0</ele><time>2026-04-22T17:21:27.01Z</time></trkpt><trkpt lat="43.1189731" lon="12.4355927"><ele>193.0</ele><time>2026-04-22T17:21:29.006Z</time></trkpt><trkpt lat="43.1188666" lon="12.4356375"><ele>193.0</ele><time>2026-04-22T17:21:31.049Z</time></trkpt><trkpt lat="43.118771" lon="12.4356965"><ele>192.8</ele><time>2026-04-22T17:21:32.966Z</time></trkpt><trkpt lat="43.1186665" lon="12.4357442"><ele>192.60000000000002</ele><time>2026-04-22T17:21:34.996Z</time></trkpt><trkpt lat="43.1185661" lon="12.4357873"><ele>192.39999999999998</ele><time>2026-04-22T17:21:36.964Z</time></trkpt><trkpt lat="43.1184671" lon="12.4358409"><ele>192.2</ele><time>2026-04-22T17:21:38.982Z</time></trkpt><trkpt lat="43.1183681" lon="12.4358944"><ele>192.0</ele><time>2026-04-22T17:21:40.991Z</time></trkpt><trkpt lat="43.1182554" lon="12.4358907"><ele>192.0</ele><time>2026-04-22T17:21:42.974Z</time></trkpt><trkpt lat="43.1181393" lon="12.4358442"><ele>192.0</ele><time>2026-04-22T17:21:44.951Z</time></trkpt><trkpt lat="43.1180182" lon="12.4358453"><ele>192.0</ele><time>2026-04-22T17:21:46.952Z</time></trkpt><trkpt lat="43.117921" lon="12.4359464"><ele>192.0</ele><time>2026-04-22T17:21:48.983Z</time></trkpt><trkpt lat="43.1178734" lon="12.4360078"><ele>192.0</ele><time>2026-04-22T17:21:50.073Z</time></trkpt><trkpt lat="43.1177709" lon="12.4360826"><ele>192.0</ele><time>2026-04-22T17:21:51.977Z</time></trkpt><trkpt lat="43.1176799" lon="12.4361874"><ele>192.0</ele><time>2026-04-22T17:21:54.019Z</time></trkpt><trkpt lat="43.1175989" lon="12.4362983"><ele>192.0</ele><time>2026-04-22T17:21:55.999Z</time></trkpt><trkpt lat="43.1175504" lon="12.4363561"><ele>192.0</ele><time>2026-04-22T17:21:57.096Z</time></trkpt><trkpt lat="43.1174612" lon="12.4364464"><ele>192.0</ele><time>2026-04-22T17:21:58.997Z</time></trkpt><trkpt lat="43.1173685" lon="12.4365361"><ele>192.5</ele><time>2026-04-22T17:22:01.007Z</time></trkpt><trkpt lat="43.1172768" lon="12.4366347"><ele>193.0</ele><time>2026-04-22T17:22:02.993Z</time></trkpt><trkpt lat="43.1171847" lon="12.4367327"><ele>193.5</ele><time>2026-04-22T17:22:05.001Z</time></trkpt><trkpt lat="43.1171078" lon="12.4368488"><ele>194.0</ele><time>2026-04-22T17:22:07.019Z</time></trkpt><trkpt lat="43.1170214" lon="12.436954"><ele>194.0</ele><time>2026-04-22T17:22:09.044Z</time></trkpt><trkpt lat="43.116963" lon="12.4370809"><ele>194.0</ele><time>2026-04-22T17:22:10.967Z</time></trkpt><trkpt lat="43.116892" lon="12.4372049"><ele>194.0</ele><time>2026-04-22T17:22:12.978Z</time></trkpt><trkpt lat="43.1168342" lon="12.4373431"><ele>194.0</ele><time>2026-04-22T17:22:14.982Z</time></trkpt><trkpt lat="43.1167813" lon="12.437495"><ele>193.5</ele><time>2026-04-22T17:22:17.023Z</time></trkpt><trkpt lat="43.1167281" lon="12.437641"><ele>193.0</ele><time>2026-04-22T17:22:18.965Z</time></trkpt><trkpt lat="43.1166753" lon="12.4377937"><ele>192.5</ele><time>2026-04-22T17:22:20.979Z</time></trkpt><trkpt lat="43.1166492" lon="12.4379468"><ele>192.0</ele><time>2026-04-22T17:22:22.947Z</time></trkpt><trkpt lat="43.1166515" lon="12.4381055"><ele>191.75</ele><time>2026-04-22T17:22:24.982Z</time></trkpt><trkpt lat="43.1166421" lon="12.4382533"><ele>191.5</ele><time>2026-04-22T17:22:26.993Z</time></trkpt><trkpt lat="43.1166198" lon="12.4383934"><ele>191.25</ele><time>2026-04-22T17:22:29.018Z</time></trkpt><trkpt lat="43.1165953" lon="12.438528"><ele>191.0</ele><time>2026-04-22T17:22:30.979Z</time></trkpt><trkpt lat="43.1165401" lon="12.4387082"><ele>190.8</ele><time>2026-04-22T17:22:33.966Z</time></trkpt><trkpt lat="43.1165052" lon="12.4388417"><ele>190.60000000000002</ele><time>2026-04-22T17:22:36.048Z</time></trkpt><trkpt lat="43.1164681" lon="12.4389598"><ele>190.4</ele><time>2026-04-22T17:22:38.018Z</time></trkpt><trkpt lat="43.1164296" lon="12.4390869"><ele>190.2</ele><time>2026-04-22T17:22:39.994Z</time></trkpt><trkpt lat="43.1163899" lon="12.4392145"><ele>190.0</ele><time>2026-04-22T17:22:42.013Z</time></trkpt><trkpt lat="43.11636" lon="12.4393463"><ele>190.0</ele><time>2026-04-22T17:22:43.981Z</time></trkpt><trkpt lat="43.1163415" lon="12.4394917"><ele>190.0</ele><time>2026-04-22T17:22:45.989Z</time></trkpt><trkpt lat="43.1163205" lon="12.4396385"><ele>190.0</ele><time>2026-04-22T17:22:47.999Z</time></trkpt><trkpt lat="43.1162903" lon="12.4397716"><ele>190.0</ele><time>2026-04-22T17:22:49.992Z</time></trkpt><trkpt lat="43.1162712" lon="12.439908"><ele>190.0</ele><time>2026-04-22T17:22:52.012Z</time></trkpt><trkpt lat="43.1162525" lon="12.4400325"><ele>190.0</ele><time>2026-04-22T17:22:54.018Z</time></trkpt><trkpt lat="43.1162461" lon="12.4401648"><ele>190.0</ele><time>2026-04-22T17:22:56.003Z</time></trkpt><trkpt lat="43.1162489" lon="12.4402883"><ele>190.0</ele><time>2026-04-22T17:22:57.99Z</time></trkpt><trkpt lat="43.1162533" lon="12.4403906"><ele>190.0</ele><time>2026-04-22T17:22:59.986Z</time></trkpt><trkpt lat="43.1162418" lon="12.4404801"><ele>190.0</ele><time>2026-04-22T17:23:02.112Z</time></trkpt><trkpt lat="43.1162035" lon="12.4405669"><ele>190.0</ele><time>2026-04-22T17:23:03.994Z</time></trkpt><trkpt lat="43.1161598" lon="12.4406726"><ele>190.16666666666669</ele><time>2026-04-22T17:23:06.093Z</time></trkpt><trkpt lat="43.1161084" lon="12.4407559"><ele>190.33333333333334</ele><time>2026-04-22T17:23:07.99Z</time></trkpt><trkpt lat="43.1160613" lon="12.4408514"><ele>190.5</ele><time>2026-04-22T17:23:09.99Z</time></trkpt><trkpt lat="43.1160206" lon="12.4409511"><ele>190.66666666666666</ele><time>2026-04-22T17:23:12.002Z</time></trkpt><trkpt lat="43.1159784" lon="12.4410665"><ele>190.83333333333331</ele><time>2026-04-22T17:23:14.027Z</time></trkpt><trkpt lat="43.1159376" lon="12.4411776"><ele>191.0</ele><time>2026-04-22T17:23:16.019Z</time></trkpt><trkpt lat="43.1158909" lon="12.4412874"><ele>191.0</ele><time>2026-04-22T17:23:18.025Z</time></trkpt><trkpt lat="43.1158437" lon="12.4413849"><ele>191.0</ele><time>2026-04-22T17:23:19.996Z</time></trkpt><trkpt lat="43.1158047" lon="12.4414907"><ele>191.0</ele><time>2026-04-22T17:23:22.066Z</time></trkpt><trkpt lat="43.1157487" lon="12.4416333"><ele>191.0</ele><time>2026-04-22T17:23:25.023Z</time></trkpt><trkpt lat="43.1157117" lon="12.4417297"><ele>191.0</ele><time>2026-04-22T17:23:27.007Z</time></trkpt><trkpt lat="43.1156845" lon="12.4418431"><ele>191.0</ele><time>2026-04-22T17:23:29.024Z</time></trkpt><trkpt lat="43.1156595" lon="12.4419728"><ele>191.0</ele><time>2026-04-22T17:23:31.111Z</time></trkpt><trkpt lat="43.1156468" lon="12.4420909"><ele>191.0</ele><time>2026-04-22T17:23:33.012Z</time></trkpt><trkpt lat="43.1156189" lon="12.4422091"><ele>191.0</ele><time>2026-04-22T17:23:35.007Z</time></trkpt><trkpt lat="43.1155719" lon="12.4423065"><ele>191.0</ele><time>2026-04-22T17:23:36.974Z</time></trkpt><trkpt lat="43.1155163" lon="12.4423886"><ele>191.0</ele><time>2026-04-22T17:23:39.018Z</time></trkpt><trkpt lat="43.115458" lon="12.4424615"><ele>190.71428571428572</ele><time>2026-04-22T17:23:41.088Z</time></trkpt><trkpt lat="43.1154078" lon="12.4425209"><ele>190.42857142857142</ele><time>2026-04-22T17:23:43.002Z</time></trkpt><trkpt lat="43.1153602" lon="12.4425897"><ele>190.14285714285714</ele><time>2026-04-22T17:23:45.053Z</time></trkpt><trkpt lat="43.1152916" lon="12.4426914"><ele>189.85714285714286</ele><time>2026-04-22T17:23:47.989Z</time></trkpt><trkpt lat="43.1152522" lon="12.4427592"><ele>189.57142857142856</ele><time>2026-04-22T17:23:50.012Z</time></trkpt><trkpt lat="43.1152118" lon="12.4428291"><ele>189.28571428571428</ele><time>2026-04-22T17:23:52.023Z</time></trkpt><trkpt lat="43.1151623" lon="12.442895"><ele>189.0</ele><time>2026-04-22T17:23:54.013Z</time></trkpt><trkpt lat="43.1151214" lon="12.4429619"><ele>189.16666666666666</ele><time>2026-04-22T17:23:55.975Z</time></trkpt><trkpt lat="43.1150699" lon="12.4430359"><ele>189.33333333333334</ele><time>2026-04-22T17:23:58.016Z</time></trkpt><trkpt lat="43.1150183" lon="12.4431113"><ele>189.5</ele><time>2026-04-22T17:24:00.004Z</time></trkpt><trkpt lat="43.1149767" lon="12.4432016"><ele>189.66666666666669</ele><time>2026-04-22T17:24:02.012Z</time></trkpt><trkpt lat="43.1149308" lon="12.4432935"><ele>189.83333333333334</ele><time>2026-04-22T17:24:04.012Z</time></trkpt><trkpt lat="43.1148924" lon="12.4433952"><ele>190.0</ele><time>2026-04-22T17:24:06.023Z</time></trkpt><trkpt lat="43.1148526" lon="12.4434983"><ele>190.16666666666669</ele><time>2026-04-22T17:24:08.001Z</time></trkpt><trkpt lat="43.114795" lon="12.4435765"><ele>190.33333333333334</ele><time>2026-04-22T17:24:10.045Z</time></trkpt><trkpt lat="43.1147389" lon="12.4436698"><ele>190.5</ele><time>2026-04-22T17:24:12.033Z</time></trkpt><trkpt lat="43.1146831" lon="12.4437637"><ele>190.66666666666666</ele><time>2026-04-22T17:24:14.015Z</time></trkpt><trkpt lat="43.114629" lon="12.4438562"><ele>190.83333333333331</ele><time>2026-04-22T17:24:16.006Z</time></trkpt><trkpt lat="43.1145709" lon="12.443942"><ele>191.0</ele><time>2026-04-22T17:24:17.997Z</time></trkpt><trkpt lat="43.1145195" lon="12.4440335"><ele>191.0</ele><time>2026-04-22T17:24:19.998Z</time></trkpt><trkpt lat="43.1144676" lon="12.4441194"><ele>191.0</ele><time>2026-04-22T17:24:22.062Z</time></trkpt><trkpt lat="43.1144118" lon="12.4441859"><ele>191.0</ele><time>2026-04-22T17:24:24.003Z</time></trkpt><trkpt lat="43.1143659" lon="12.4442622"><ele>191.0</ele><time>2026-04-22T17:24:25.981Z</time></trkpt><trkpt lat="43.1143072" lon="12.4443464"><ele>191.0</ele><time>2026-04-22T17:24:28.047Z</time></trkpt><trkpt lat="43.114252" lon="12.444421"><ele>191.0</ele><time>2026-04-22T17:24:29.982Z</time></trkpt><trkpt lat="43.1141808" lon="12.4444836"><ele>191.0</ele><time>2026-04-22T17:24:31.997Z</time></trkpt><trkpt lat="43.1141113" lon="12.4445517"><ele>191.0</ele><time>2026-04-22T17:24:34.06Z</time></trkpt><trkpt lat="43.1140436" lon="12.4446178"><ele>191.0</ele><time>2026-04-22T17:24:36.02Z</time></trkpt><trkpt lat="43.1139783" lon="12.444675"><ele>191.0</ele><time>2026-04-22T17:24:38.002Z</time></trkpt><trkpt lat="43.113906" lon="12.4447306"><ele>191.0</ele><time>2026-04-22T17:24:39.999Z</time></trkpt><trkpt lat="43.1138311" lon="12.4447809"><ele>191.0</ele><time>2026-04-22T17:24:41.978Z</time></trkpt><trkpt lat="43.1137443" lon="12.4448298"><ele>190.8</ele><time>2026-04-22T17:24:44.152Z</time></trkpt><trkpt lat="43.1136653" lon="12.4448728"><ele>190.60000000000002</ele><time>2026-04-22T17:24:46.091Z</time></trkpt><trkpt lat="43.1135794" lon="12.4449014"><ele>190.4</ele><time>2026-04-22T17:24:48.009Z</time></trkpt><trkpt lat="43.1134871" lon="12.4449152"><ele>190.2</ele><time>2026-04-22T17:24:49.991Z</time></trkpt><trkpt lat="43.1133928" lon="12.4449349"><ele>190.0</ele><time>2026-04-22T17:24:52.002Z</time></trkpt><trkpt lat="43.1133016" lon="12.4449443"><ele>190.4</ele><time>2026-04-22T17:24:53.996Z</time></trkpt><trkpt lat="43.1132078" lon="12.4449426"><ele>190.8</ele><time>2026-04-22T17:24:55.988Z</time></trkpt><trkpt lat="43.1131136" lon="12.4449285"><ele>191.2</ele><time>2026-04-22T17:24:58.01Z</time></trkpt><trkpt lat="43.1130172" lon="12.4449053"><ele>191.6</ele><time>2026-04-22T17:24:59.996Z</time></trkpt><trkpt lat="43.1129127" lon="12.4448833"><ele>192.0</ele><time>2026-04-22T17:25:02.013Z</time></trkpt><trkpt lat="43.1128106" lon="12.4448529"><ele>192.0</ele><time>2026-04-22T17:25:03.982Z</time></trkpt><trkpt lat="43.1127094" lon="12.4448119"><ele>192.0</ele><time>2026-04-22T17:25:05.975Z</time></trkpt><trkpt lat="43.1126041" lon="12.4447757"><ele>192.0</ele><time>2026-04-22T17:25:07.985Z</time></trkpt><trkpt lat="43.1124998" lon="12.4447202"><ele>192.0</ele><time>2026-04-22T17:25:10.007Z</time></trkpt><trkpt lat="43.1124071" lon="12.4446614"><ele>192.0</ele><time>2026-04-22T17:25:11.988Z</time></trkpt><trkpt lat="43.112316" lon="12.4445917"><ele>192.0</ele><time>2026-04-22T17:25:14.08Z</time></trkpt><trkpt lat="43.1122422" lon="12.4445196"><ele>192.0</ele><time>2026-04-22T17:25:16.021Z</time></trkpt><trkpt lat="43.1121956" lon="12.4444226"><ele>192.0</ele><time>2026-04-22T17:25:18.006Z</time></trkpt><trkpt lat="43.1121208" lon="12.4444652"><ele>192.0</ele><time>2026-04-22T17:25:21Z</time></trkpt><trkpt lat="43.1120542" lon="12.444539"><ele>192.0</ele><time>2026-04-22T17:25:22.987Z</time></trkpt><trkpt lat="43.1119838" lon="12.4446203"><ele>192.0</ele><time>2026-04-22T17:25:25.008Z</time></trkpt><trkpt lat="43.1119081" lon="12.4446978"><ele>192.2</ele><time>2026-04-22T17:25:27.019Z</time></trkpt><trkpt lat="43.1118298" lon="12.4447772"><ele>192.39999999999998</ele><time>2026-04-22T17:25:29.033Z</time></trkpt><trkpt lat="43.1117546" lon="12.4448575"><ele>192.60000000000002</ele><time>2026-04-22T17:25:31.009Z</time></trkpt><trkpt lat="43.111671" lon="12.4449203"><ele>192.8</ele><time>2026-04-22T17:25:32.954Z</time></trkpt><trkpt lat="43.1115833" lon="12.4449811"><ele>193.0</ele><time>2026-04-22T17:25:34.98Z</time></trkpt><trkpt lat="43.1114944" lon="12.4450433"><ele>193.0</ele><time>2026-04-22T17:25:36.98Z</time></trkpt><trkpt lat="43.1114051" lon="12.445099"><ele>193.0</ele><time>2026-04-22T17:25:38.972Z</time></trkpt><trkpt lat="43.111323" lon="12.4451705"><ele>193.0</ele><time>2026-04-22T17:25:40.953Z</time></trkpt><trkpt lat="43.1112227" lon="12.4452174"><ele>193.0</ele><time>2026-04-22T17:25:42.972Z</time></trkpt><trkpt lat="43.1111336" lon="12.4452816"><ele>193.0</ele><time>2026-04-22T17:25:44.98Z</time></trkpt><trkpt lat="43.1110403" lon="12.4453274"><ele>193.0</ele><time>2026-04-22T17:25:46.954Z</time></trkpt><trkpt lat="43.1109569" lon="12.4453878"><ele>193.0</ele><time>2026-04-22T17:25:48.953Z</time></trkpt><trkpt lat="43.1108694" lon="12.4454315"><ele>193.0</ele><time>2026-04-22T17:25:50.98Z</time></trkpt><trkpt lat="43.1107293" lon="12.4455023"><ele>193.0</ele><time>2026-04-22T17:25:53.974Z</time></trkpt><trkpt lat="43.1106355" lon="12.4455651"><ele>193.0</ele><time>2026-04-22T17:25:55.967Z</time></trkpt><trkpt lat="43.1105448" lon="12.4456142"><ele>193.0</ele><time>2026-04-22T17:25:57.961Z</time></trkpt><trkpt lat="43.110454" lon="12.4456674"><ele>193.0</ele><time>2026-04-22T17:25:59.946Z</time></trkpt><trkpt lat="43.110367" lon="12.4457247"><ele>193.0</ele><time>2026-04-22T17:26:01.954Z</time></trkpt><trkpt lat="43.1102789" lon="12.4457736"><ele>193.0</ele><time>2026-04-22T17:26:03.984Z</time></trkpt><trkpt lat="43.1102023" lon="12.4458525"><ele>193.0</ele><time>2026-04-22T17:26:05.953Z</time></trkpt><trkpt lat="43.1101253" lon="12.4459307"><ele>192.99999999999997</ele><time>2026-04-22T17:26:07.985Z</time></trkpt><trkpt lat="43.1100491" lon="12.4460107"><ele>193.0</ele><time>2026-04-22T17:26:09.982Z</time></trkpt><trkpt lat="43.1099703" lon="12.4460797"><ele>193.0</ele><time>2026-04-22T17:26:11.955Z</time></trkpt><trkpt lat="43.1098889" lon="12.4461457"><ele>193.0</ele><time>2026-04-22T17:26:13.942Z</time></trkpt><trkpt lat="43.1098348" lon="12.4462345"><ele>192.99999999999997</ele><time>2026-04-22T17:26:15.962Z</time></trkpt><trkpt lat="43.1097763" lon="12.4462779"><ele>193.0</ele><time>2026-04-22T17:26:17.951Z</time></trkpt><trkpt lat="43.1097171" lon="12.4462131"><ele>193.00000000000003</ele><time>2026-04-22T17:26:20.954Z</time></trkpt><trkpt lat="43.1096756" lon="12.4461301"><ele>193.0</ele><time>2026-04-22T17:26:23.96Z</time></trkpt><trkpt lat="43.1096429" lon="12.4460457"><ele>193.0</ele><time>2026-04-22T17:26:27Z</time></trkpt><trkpt lat="43.1095968" lon="12.4459863"><ele>193.0</ele><time>2026-04-22T17:26:30.01Z</time></trkpt><trkpt lat="43.1095426" lon="12.4459167"><ele>193.0</ele><time>2026-04-22T17:26:33.995Z</time></trkpt><trkpt lat="43.1094802" lon="12.4458642"><ele>193.00000000000003</ele><time>2026-04-22T17:26:36.984Z</time></trkpt><trkpt lat="43.1094202" lon="12.4458038"><ele>193.0</ele><time>2026-04-22T17:26:40.005Z</time></trkpt><trkpt lat="43.1093455" lon="12.4457412"><ele>193.00000000000003</ele><time>2026-04-22T17:26:43.986Z</time></trkpt><trkpt lat="43.1092896" lon="12.4456961"><ele>193.0</ele><time>2026-04-22T17:26:46.991Z</time></trkpt><trkpt lat="43.1092356" lon="12.4456456"><ele>193.0</ele><time>2026-04-22T17:26:50.001Z</time></trkpt><trkpt lat="43.1091783" lon="12.4455996"><ele>193.0</ele><time>2026-04-22T17:26:52.989Z</time></trkpt><trkpt lat="43.1091199" lon="12.4455542"><ele>193.0</ele><time>2026-04-22T17:26:55.995Z</time></trkpt><trkpt lat="43.1090586" lon="12.445503"><ele>193.00000000000003</ele><time>2026-04-22T17:26:58.974Z</time></trkpt><trkpt lat="43.108999" lon="12.4454487"><ele>193.0</ele><time>2026-04-22T17:27:01.989Z</time></trkpt><trkpt lat="43.1089401" lon="12.4454051"><ele>192.85714285714286</ele><time>2026-04-22T17:27:04.989Z</time></trkpt><trkpt lat="43.1088864" lon="12.4453556"><ele>192.71428571428572</ele><time>2026-04-22T17:27:08.017Z</time></trkpt><trkpt lat="43.1088272" lon="12.4453081"><ele>192.57142857142856</ele><time>2026-04-22T17:27:11.075Z</time></trkpt><trkpt lat="43.108759" lon="12.4452471"><ele>192.42857142857144</ele><time>2026-04-22T17:27:14.973Z</time></trkpt><trkpt lat="43.1087048" lon="12.4451951"><ele>192.28571428571428</ele><time>2026-04-22T17:27:18.01Z</time></trkpt><trkpt lat="43.1086467" lon="12.4451473"><ele>192.14285714285714</ele><time>2026-04-22T17:27:21.003Z</time></trkpt><trkpt lat="43.108592" lon="12.4451017"><ele>192.0</ele><time>2026-04-22T17:27:23.986Z</time></trkpt><trkpt lat="43.1085383" lon="12.4450554"><ele>192.0</ele><time>2026-04-22T17:27:26.994Z</time></trkpt><trkpt lat="43.1084651" lon="12.4449897"><ele>192.0</ele><time>2026-04-22T17:27:31.133Z</time></trkpt><trkpt lat="43.1083944" lon="12.4449354"><ele>192.0</ele><time>2026-04-22T17:27:35.001Z</time></trkpt><trkpt lat="43.1083253" lon="12.4448818"><ele>192.0</ele><time>2026-04-22T17:27:38.998Z</time></trkpt><trkpt lat="43.1082528" lon="12.444824"><ele>192.0</ele><time>2026-04-22T17:27:42.994Z</time></trkpt><trkpt lat="43.1081855" lon="12.4447684"><ele>192.0</ele><time>2026-04-22T17:27:46.974Z</time></trkpt><trkpt lat="43.1081277" lon="12.4447263"><ele>192.85714285714283</ele><time>2026-04-22T17:27:50.995Z</time></trkpt><trkpt lat="43.1080642" lon="12.4446935"><ele>193.71428571428572</ele><time>2026-04-22T17:27:55.023Z</time></trkpt><trkpt lat="43.108003" lon="12.4446632"><ele>194.57142857142856</ele><time>2026-04-22T17:28:00.018Z</time></trkpt><trkpt lat="43.1079425" lon="12.4446242"><ele>195.42857142857142</ele><time>2026-04-22T17:28:02.995Z</time></trkpt><trkpt lat="43.1078766" lon="12.4445695"><ele>196.28571428571428</ele><time>2026-04-22T17:28:05.978Z</time></trkpt><trkpt lat="43.1078321" lon="12.4444744"><ele>197.14285714285714</ele><time>2026-04-22T17:28:09.134Z</time></trkpt><trkpt lat="43.1077753" lon="12.444405"><ele>198.0</ele><time>2026-04-22T17:28:12.986Z</time></trkpt><trkpt lat="43.1077442" lon="12.4443227"><ele>199.2857142857143</ele><time>2026-04-22T17:28:17.998Z</time></trkpt><trkpt lat="43.1076837" lon="12.4442753"><ele>200.57142857142856</ele><time>2026-04-22T17:28:21.991Z</time></trkpt><trkpt lat="43.1076187" lon="12.4442309"><ele>201.85714285714286</ele><time>2026-04-22T17:28:28.019Z</time></trkpt><trkpt lat="43.107598" lon="12.4441387"><ele>203.14285714285717</ele><time>2026-04-22T17:28:34.107Z</time></trkpt><trkpt lat="43.1075816" lon="12.4440511"><ele>204.42857142857144</ele><time>2026-04-22T17:28:39.031Z</time></trkpt><trkpt lat="43.1075645" lon="12.4439636"><ele>205.71428571428572</ele><time>2026-04-22T17:28:44.091Z</time></trkpt><trkpt lat="43.1075519" lon="12.4438771"><ele>207.0</ele><time>2026-04-22T17:28:49.993Z</time></trkpt><trkpt lat="43.1075467" lon="12.4437894"><ele>208.71428571428572</ele><time>2026-04-22T17:28:55.985Z</time></trkpt><trkpt lat="43.1076102" lon="12.443748"><ele>210.42857142857144</ele><time>2026-04-22T17:29:12.007Z</time></trkpt><trkpt lat="43.1075676" lon="12.4436757"><ele>212.14285714285717</ele><time>2026-04-22T17:29:17.983Z</time></trkpt><trkpt lat="43.1075525" lon="12.4435772"><ele>213.85714285714286</ele><time>2026-04-22T17:29:23.979Z</time></trkpt><trkpt lat="43.1075556" lon="12.4434908"><ele>215.57142857142856</ele><time>2026-04-22T17:29:30.091Z</time></trkpt><trkpt lat="43.1075348" lon="12.4433996"><ele>217.2857142857143</ele><time>2026-04-22T17:29:34.98Z</time></trkpt><trkpt lat="43.1075277" lon="12.4433033"><ele>219.0</ele><time>2026-04-22T17:29:40.996Z</time></trkpt><trkpt lat="43.1075323" lon="12.4432121"><ele>219.0</ele><time>2026-04-22T17:29:47.004Z</time></trkpt><trkpt lat="43.1075458" lon="12.4431191"><ele>219.0</ele><time>2026-04-22T17:29:52.991Z</time></trkpt><trkpt lat="43.1075795" lon="12.4430323"><ele>219.0</ele><time>2026-04-22T17:29:59.967Z</time></trkpt><trkpt lat="43.1076126" lon="12.4429456"><ele>219.0</ele><time>2026-04-22T17:30:06.966Z</time></trkpt><trkpt lat="43.107655" lon="12.4428654"><ele>219.0</ele><time>2026-04-22T17:30:13.992Z</time></trkpt><trkpt lat="43.1076976" lon="12.4427968"><ele>219.0</ele><time>2026-04-22T17:30:19.973Z</time></trkpt><trkpt lat="43.1077521" lon="12.4427199"><ele>219.0</ele><time>2026-04-22T17:30:26.993Z</time></trkpt><trkpt lat="43.1077987" lon="12.4426486"><ele>221.14285714285717</ele><time>2026-04-22T17:30:33Z</time></trkpt><trkpt lat="43.1078437" lon="12.4425879"><ele>223.28571428571428</ele><time>2026-04-22T17:30:38.99Z</time></trkpt><trkpt lat="43.1078927" lon="12.4425272"><ele>225.42857142857144</ele><time>2026-04-22T17:30:45.988Z</time></trkpt><trkpt lat="43.1079422" lon="12.4424699"><ele>227.57142857142858</ele><time>2026-04-22T17:30:56.986Z</time></trkpt><trkpt lat="43.1079883" lon="12.4423968"><ele>229.71428571428572</ele><time>2026-04-22T17:31:04.997Z</time></trkpt><trkpt lat="43.1080459" lon="12.4423544"><ele>231.85714285714286</ele><time>2026-04-22T17:31:11.011Z</time></trkpt><trkpt lat="43.1080951" lon="12.4422975"><ele>234.0</ele><time>2026-04-22T17:31:16.961Z</time></trkpt><trkpt lat="43.108148" lon="12.4422459"><ele>234.0</ele><time>2026-04-22T17:31:22.97Z</time></trkpt><trkpt lat="43.1081833" lon="12.4421616"><ele>234.00000000000003</ele><time>2026-04-22T17:31:28.986Z</time></trkpt><trkpt lat="43.1082321" lon="12.4420936"><ele>234.0</ele><time>2026-04-22T17:31:35.028Z</time></trkpt><trkpt lat="43.1082827" lon="12.4420399"><ele>234.0</ele><time>2026-04-22T17:31:41.009Z</time></trkpt><trkpt lat="43.1083036" lon="12.4419526"><ele>234.00000000000003</ele><time>2026-04-22T17:31:46.989Z</time></trkpt><trkpt lat="43.1083669" lon="12.4419783"><ele>234.0</ele><time>2026-04-22T17:31:52.959Z</time></trkpt><trkpt lat="43.1084253" lon="12.4420286"><ele>234.0</ele><time>2026-04-22T17:32:00.004Z</time></trkpt><trkpt lat="43.1084511" lon="12.4421073"><ele>235.2857142857143</ele><time>2026-04-22T17:32:06.987Z</time></trkpt><trkpt lat="43.1084218" lon="12.4420272"><ele>236.5714285714286</ele><time>2026-04-22T17:32:15.978Z</time></trkpt><trkpt lat="43.1084512" lon="12.4421067"><ele>237.85714285714286</ele><time>2026-04-22T17:32:25.999Z</time></trkpt><trkpt lat="43.1084787" lon="12.4420232"><ele>239.14285714285717</ele><time>2026-04-22T17:32:29.986Z</time></trkpt><trkpt lat="43.1084432" lon="12.4420984"><ele>240.42857142857144</ele><time>2026-04-22T17:32:36.998Z</time></trkpt><trkpt lat="43.1084614" lon="12.4420066"><ele>241.71428571428572</ele><time>2026-04-22T17:32:43.916Z</time></trkpt><trkpt lat="43.1084619" lon="12.4420959"><ele>243.0</ele><time>2026-04-22T17:32:53Z</time></trkpt><trkpt lat="43.1084186" lon="12.4420092"><ele>243.0</ele><time>2026-04-22T17:33:00.008Z</time></trkpt><trkpt lat="43.1084846" lon="12.4420161"><ele>243.0</ele><time>2026-04-22T17:33:09.017Z</time></trkpt><trkpt lat="43.108551" lon="12.4420377"><ele>243.0</ele><time>2026-04-22T17:33:22.964Z</time></trkpt><trkpt lat="43.1084301" lon="12.4418955"><ele>243.0</ele><time>2026-04-22T17:33:35.068Z</time></trkpt><trkpt lat="43.1085206" lon="12.4419834"><ele>243.0</ele><time>2026-04-22T17:34:55.716Z</time></trkpt><trkpt lat="43.1085306" lon="12.4420794"><ele>243.0</ele><time>2026-04-22T17:35:02.961Z</time></trkpt></trkseg></trk></gpx>